<?xml version="1.0" encoding="UTF-8" standalone="no" ?>
<gpx xmlns="http://www.topografix.com/GPX/1/1" xmlns:xsi="http://www.w3.org/2001/XMLSchema-instance" xsi:schemaLocation="http://www.topografix.com/GPX/1/1 http://www.topografix.com/GPX/1/1/gpx.xsd" version="1.1" creator="VisuGPX - https://www.visugpx.com">
  <metadata>
    <name>Mont Ucla Croatie</name>
    <desc><![CDATA[randonnée au Mont Ucla]]></desc>
  </metadata>
  <trk>
    <name><![CDATA[MT UCLA16 01:39:14 PM]]></name>
    <trkseg>
      <trkpt lat="45.30802" lon="14.21535">
        <ele>886.47</ele>
        <time>2016-06-06T08:40:56Z</time>
      </trkpt>
      <trkpt lat="45.30801" lon="14.21536">
        <ele>886.95</ele>
        <time>2016-06-06T08:40:59Z</time>
      </trkpt>
      <trkpt lat="45.30797" lon="14.21534">
        <ele>890.8</ele>
        <time>2016-06-06T08:41:47Z</time>
      </trkpt>
      <trkpt lat="45.30797" lon="14.21534">
        <ele>894.16</ele>
        <time>2016-06-06T08:41:50Z</time>
      </trkpt>
      <trkpt lat="45.30797" lon="14.21534">
        <ele>897.53</ele>
        <time>2016-06-06T08:41:54Z</time>
      </trkpt>
      <trkpt lat="45.30798" lon="14.21536">
        <ele>900.89</ele>
        <time>2016-06-06T08:41:58Z</time>
      </trkpt>
      <trkpt lat="45.30798" lon="14.21537">
        <ele>904.26</ele>
        <time>2016-06-06T08:42:02Z</time>
      </trkpt>
      <trkpt lat="45.30797" lon="14.21537">
        <ele>906.18</ele>
        <time>2016-06-06T08:42:05Z</time>
      </trkpt>
      <trkpt lat="45.30798" lon="14.21538">
        <ele>909.06</ele>
        <time>2016-06-06T08:42:09Z</time>
      </trkpt>
      <trkpt lat="45.30799" lon="14.21538">
        <ele>909.54</ele>
        <time>2016-06-06T08:42:11Z</time>
      </trkpt>
      <trkpt lat="45.30799" lon="14.21538">
        <ele>912.91</ele>
        <time>2016-06-06T08:42:16Z</time>
      </trkpt>
      <trkpt lat="45.30799" lon="14.21537">
        <ele>914.83</ele>
        <time>2016-06-06T08:42:20Z</time>
      </trkpt>
      <trkpt lat="45.30799" lon="14.21537">
        <ele>918.2</ele>
        <time>2016-06-06T08:42:26Z</time>
      </trkpt>
      <trkpt lat="45.30798" lon="14.21537">
        <ele>921.56</ele>
        <time>2016-06-06T08:42:31Z</time>
      </trkpt>
      <trkpt lat="45.308" lon="14.21537">
        <ele>924.93</ele>
        <time>2016-06-06T08:42:46Z</time>
      </trkpt>
      <trkpt lat="45.30803" lon="14.21535">
        <ele>927.81</ele>
        <time>2016-06-06T08:43:02Z</time>
      </trkpt>
      <trkpt lat="45.30803" lon="14.21535">
        <ele>931.17</ele>
        <time>2016-06-06T08:43:24Z</time>
      </trkpt>
      <trkpt lat="45.30813" lon="14.2151">
        <ele>930.69</ele>
        <time>2016-06-06T08:43:57Z</time>
      </trkpt>
      <trkpt lat="45.30784" lon="14.21482">
        <ele>934.06</ele>
        <time>2016-06-06T08:44:44Z</time>
      </trkpt>
      <trkpt lat="45.30783" lon="14.21471">
        <ele>936.46</ele>
        <time>2016-06-06T08:45:11Z</time>
      </trkpt>
      <trkpt lat="45.30767" lon="14.21463">
        <ele>938.86</ele>
        <time>2016-06-06T08:45:28Z</time>
      </trkpt>
      <trkpt lat="45.3076" lon="14.21466">
        <ele>941.27</ele>
        <time>2016-06-06T08:45:48Z</time>
      </trkpt>
      <trkpt lat="45.30756" lon="14.21466">
        <ele>943.67</ele>
        <time>2016-06-06T08:46:02Z</time>
      </trkpt>
      <trkpt lat="45.30754" lon="14.21461">
        <ele>945.59</ele>
        <time>2016-06-06T08:46:18Z</time>
      </trkpt>
      <trkpt lat="45.30748" lon="14.21456">
        <ele>945.11</ele>
        <time>2016-06-06T08:46:31Z</time>
      </trkpt>
      <trkpt lat="45.30737" lon="14.21446">
        <ele>946.07</ele>
        <time>2016-06-06T08:46:43Z</time>
      </trkpt>
      <trkpt lat="45.30728" lon="14.2144">
        <ele>948.48</ele>
        <time>2016-06-06T08:47:00Z</time>
      </trkpt>
      <trkpt lat="45.3072" lon="14.21439">
        <ele>948</ele>
        <time>2016-06-06T08:47:04Z</time>
      </trkpt>
      <trkpt lat="45.30706" lon="14.21444">
        <ele>948.96</ele>
        <time>2016-06-06T08:47:17Z</time>
      </trkpt>
      <trkpt lat="45.30695" lon="14.21442">
        <ele>949.44</ele>
        <time>2016-06-06T08:47:30Z</time>
      </trkpt>
      <trkpt lat="45.3068" lon="14.21441">
        <ele>951.84</ele>
        <time>2016-06-06T08:47:43Z</time>
      </trkpt>
      <trkpt lat="45.30669" lon="14.21449">
        <ele>950.88</ele>
        <time>2016-06-06T08:47:57Z</time>
      </trkpt>
      <trkpt lat="45.30668" lon="14.21451">
        <ele>950.88</ele>
        <time>2016-06-06T08:48:01Z</time>
      </trkpt>
      <trkpt lat="45.30658" lon="14.21462">
        <ele>948.48</ele>
        <time>2016-06-06T08:48:15Z</time>
      </trkpt>
      <trkpt lat="45.30645" lon="14.21459">
        <ele>949.92</ele>
        <time>2016-06-06T08:48:29Z</time>
      </trkpt>
      <trkpt lat="45.30639" lon="14.21455">
        <ele>951.36</ele>
        <time>2016-06-06T08:48:39Z</time>
      </trkpt>
      <trkpt lat="45.30629" lon="14.21454">
        <ele>952.8</ele>
        <time>2016-06-06T08:48:50Z</time>
      </trkpt>
      <trkpt lat="45.30618" lon="14.21456">
        <ele>953.77</ele>
        <time>2016-06-06T08:49:02Z</time>
      </trkpt>
      <trkpt lat="45.30615" lon="14.21455">
        <ele>955.69</ele>
        <time>2016-06-06T08:49:13Z</time>
      </trkpt>
      <trkpt lat="45.30624" lon="14.21449">
        <ele>957.13</ele>
        <time>2016-06-06T08:49:26Z</time>
      </trkpt>
      <trkpt lat="45.30633" lon="14.21445">
        <ele>958.57</ele>
        <time>2016-06-06T08:49:39Z</time>
      </trkpt>
      <trkpt lat="45.30636" lon="14.21435">
        <ele>960.49</ele>
        <time>2016-06-06T08:49:53Z</time>
      </trkpt>
      <trkpt lat="45.30624" lon="14.21426">
        <ele>961.94</ele>
        <time>2016-06-06T08:50:07Z</time>
      </trkpt>
      <trkpt lat="45.30614" lon="14.2142">
        <ele>963.38</ele>
        <time>2016-06-06T08:50:19Z</time>
      </trkpt>
      <trkpt lat="45.30603" lon="14.21416">
        <ele>964.82</ele>
        <time>2016-06-06T08:50:30Z</time>
      </trkpt>
      <trkpt lat="45.30598" lon="14.21415">
        <ele>965.3</ele>
        <time>2016-06-06T08:50:38Z</time>
      </trkpt>
      <trkpt lat="45.30595" lon="14.21415">
        <ele>965.78</ele>
        <time>2016-06-06T08:50:40Z</time>
      </trkpt>
      <trkpt lat="45.30591" lon="14.21419">
        <ele>965.78</ele>
        <time>2016-06-06T08:50:43Z</time>
      </trkpt>
      <trkpt lat="45.30583" lon="14.21423">
        <ele>967.7</ele>
        <time>2016-06-06T08:50:55Z</time>
      </trkpt>
      <trkpt lat="45.30586" lon="14.2142">
        <ele>968.67</ele>
        <time>2016-06-06T08:51:06Z</time>
      </trkpt>
      <trkpt lat="45.30598" lon="14.21415">
        <ele>969.63</ele>
        <time>2016-06-06T08:51:20Z</time>
      </trkpt>
      <trkpt lat="45.30604" lon="14.21408">
        <ele>971.55</ele>
        <time>2016-06-06T08:51:30Z</time>
      </trkpt>
      <trkpt lat="45.30614" lon="14.21398">
        <ele>972.99</ele>
        <time>2016-06-06T08:51:46Z</time>
      </trkpt>
      <trkpt lat="45.30605" lon="14.2139">
        <ele>974.91</ele>
        <time>2016-06-06T08:51:57Z</time>
      </trkpt>
      <trkpt lat="45.30596" lon="14.21383">
        <ele>976.36</ele>
        <time>2016-06-06T08:52:10Z</time>
      </trkpt>
      <trkpt lat="45.30589" lon="14.21373">
        <ele>978.28</ele>
        <time>2016-06-06T08:52:24Z</time>
      </trkpt>
      <trkpt lat="45.30573" lon="14.21365">
        <ele>979.72</ele>
        <time>2016-06-06T08:52:38Z</time>
      </trkpt>
      <trkpt lat="45.30567" lon="14.2136">
        <ele>980.68</ele>
        <time>2016-06-06T08:52:49Z</time>
      </trkpt>
      <trkpt lat="45.30558" lon="14.2136">
        <ele>982.12</ele>
        <time>2016-06-06T08:53:04Z</time>
      </trkpt>
      <trkpt lat="45.30555" lon="14.21359">
        <ele>982.6</ele>
        <time>2016-06-06T08:53:09Z</time>
      </trkpt>
      <trkpt lat="45.30542" lon="14.21367">
        <ele>984.53</ele>
        <time>2016-06-06T08:53:22Z</time>
      </trkpt>
      <trkpt lat="45.30539" lon="14.21367">
        <ele>985.97</ele>
        <time>2016-06-06T08:53:35Z</time>
      </trkpt>
      <trkpt lat="45.30529" lon="14.21365">
        <ele>987.89</ele>
        <time>2016-06-06T08:53:47Z</time>
      </trkpt>
      <trkpt lat="45.30522" lon="14.21373">
        <ele>988.37</ele>
        <time>2016-06-06T08:53:55Z</time>
      </trkpt>
      <trkpt lat="45.30515" lon="14.21382">
        <ele>989.81</ele>
        <time>2016-06-06T08:54:08Z</time>
      </trkpt>
      <trkpt lat="45.30512" lon="14.21378">
        <ele>990.78</ele>
        <time>2016-06-06T08:54:18Z</time>
      </trkpt>
      <trkpt lat="45.30506" lon="14.21369">
        <ele>992.22</ele>
        <time>2016-06-06T08:54:30Z</time>
      </trkpt>
      <trkpt lat="45.305" lon="14.21363">
        <ele>994.14</ele>
        <time>2016-06-06T08:54:44Z</time>
      </trkpt>
      <trkpt lat="45.3049" lon="14.21358">
        <ele>996.06</ele>
        <time>2016-06-06T08:54:57Z</time>
      </trkpt>
      <trkpt lat="45.30485" lon="14.21357">
        <ele>997.02</ele>
        <time>2016-06-06T08:55:08Z</time>
      </trkpt>
      <trkpt lat="45.30475" lon="14.2136">
        <ele>998.47</ele>
        <time>2016-06-06T08:55:20Z</time>
      </trkpt>
      <trkpt lat="45.30471" lon="14.21359">
        <ele>999.91</ele>
        <time>2016-06-06T08:55:33Z</time>
      </trkpt>
      <trkpt lat="45.30458" lon="14.21357">
        <ele>1001.83</ele>
        <time>2016-06-06T08:55:46Z</time>
      </trkpt>
      <trkpt lat="45.30452" lon="14.21352">
        <ele>1003.27</ele>
        <time>2016-06-06T08:55:56Z</time>
      </trkpt>
      <trkpt lat="45.30447" lon="14.21347">
        <ele>1005.68</ele>
        <time>2016-06-06T08:56:07Z</time>
      </trkpt>
      <trkpt lat="45.30445" lon="14.21347">
        <ele>1006.16</ele>
        <time>2016-06-06T08:56:14Z</time>
      </trkpt>
      <trkpt lat="45.30438" lon="14.21345">
        <ele>1008.08</ele>
        <time>2016-06-06T08:56:27Z</time>
      </trkpt>
      <trkpt lat="45.30433" lon="14.21336">
        <ele>1009.52</ele>
        <time>2016-06-06T08:56:38Z</time>
      </trkpt>
      <trkpt lat="45.30427" lon="14.21331">
        <ele>1010.48</ele>
        <time>2016-06-06T08:56:51Z</time>
      </trkpt>
      <trkpt lat="45.30425" lon="14.21327">
        <ele>1010.96</ele>
        <time>2016-06-06T08:57:04Z</time>
      </trkpt>
      <trkpt lat="45.30431" lon="14.21324">
        <ele>1010.96</ele>
        <time>2016-06-06T08:57:27Z</time>
      </trkpt>
      <trkpt lat="45.30424" lon="14.21328">
        <ele>1010.48</ele>
        <time>2016-06-06T08:57:51Z</time>
      </trkpt>
      <trkpt lat="45.30419" lon="14.21324">
        <ele>1011.44</ele>
        <time>2016-06-06T08:58:07Z</time>
      </trkpt>
      <trkpt lat="45.30417" lon="14.21325">
        <ele>1013.85</ele>
        <time>2016-06-06T08:58:36Z</time>
      </trkpt>
      <trkpt lat="45.30416" lon="14.21324">
        <ele>1015.77</ele>
        <time>2016-06-06T08:58:41Z</time>
      </trkpt>
      <trkpt lat="45.30409" lon="14.21325">
        <ele>1017.21</ele>
        <time>2016-06-06T08:58:55Z</time>
      </trkpt>
      <trkpt lat="45.304" lon="14.21318">
        <ele>1019.62</ele>
        <time>2016-06-06T08:59:09Z</time>
      </trkpt>
      <trkpt lat="45.30393" lon="14.21319">
        <ele>1019.62</ele>
        <time>2016-06-06T08:59:20Z</time>
      </trkpt>
      <trkpt lat="45.30384" lon="14.21312">
        <ele>1021.54</ele>
        <time>2016-06-06T08:59:33Z</time>
      </trkpt>
      <trkpt lat="45.30379" lon="14.21306">
        <ele>1023.46</ele>
        <time>2016-06-06T08:59:46Z</time>
      </trkpt>
      <trkpt lat="45.30375" lon="14.213">
        <ele>1024.9</ele>
        <time>2016-06-06T08:59:59Z</time>
      </trkpt>
      <trkpt lat="45.30368" lon="14.21296">
        <ele>1026.83</ele>
        <time>2016-06-06T09:00:13Z</time>
      </trkpt>
      <trkpt lat="45.30364" lon="14.21294">
        <ele>1027.31</ele>
        <time>2016-06-06T09:00:26Z</time>
      </trkpt>
      <trkpt lat="45.30358" lon="14.2129">
        <ele>1029.23</ele>
        <time>2016-06-06T09:00:38Z</time>
      </trkpt>
      <trkpt lat="45.30353" lon="14.21287">
        <ele>1030.19</ele>
        <time>2016-06-06T09:00:50Z</time>
      </trkpt>
      <trkpt lat="45.30346" lon="14.21282">
        <ele>1032.11</ele>
        <time>2016-06-06T09:01:03Z</time>
      </trkpt>
      <trkpt lat="45.30341" lon="14.21279">
        <ele>1033.55</ele>
        <time>2016-06-06T09:01:17Z</time>
      </trkpt>
      <trkpt lat="45.30335" lon="14.21275">
        <ele>1035</ele>
        <time>2016-06-06T09:01:29Z</time>
      </trkpt>
      <trkpt lat="45.30329" lon="14.21271">
        <ele>1035.96</ele>
        <time>2016-06-06T09:01:41Z</time>
      </trkpt>
      <trkpt lat="45.30331" lon="14.21268">
        <ele>1038.36</ele>
        <time>2016-06-06T09:01:58Z</time>
      </trkpt>
      <trkpt lat="45.30336" lon="14.21268">
        <ele>1040.28</ele>
        <time>2016-06-06T09:02:14Z</time>
      </trkpt>
      <trkpt lat="45.30339" lon="14.21266">
        <ele>1041.73</ele>
        <time>2016-06-06T09:02:26Z</time>
      </trkpt>
      <trkpt lat="45.30342" lon="14.21261">
        <ele>1043.17</ele>
        <time>2016-06-06T09:02:38Z</time>
      </trkpt>
      <trkpt lat="45.30345" lon="14.2126">
        <ele>1045.09</ele>
        <time>2016-06-06T09:02:53Z</time>
      </trkpt>
      <trkpt lat="45.30351" lon="14.21255">
        <ele>1046.05</ele>
        <time>2016-06-06T09:03:09Z</time>
      </trkpt>
      <trkpt lat="45.30355" lon="14.21256">
        <ele>1047.01</ele>
        <time>2016-06-06T09:03:15Z</time>
      </trkpt>
      <trkpt lat="45.30365" lon="14.2125">
        <ele>1049.42</ele>
        <time>2016-06-06T09:03:28Z</time>
      </trkpt>
      <trkpt lat="45.30368" lon="14.21244">
        <ele>1049.9</ele>
        <time>2016-06-06T09:03:43Z</time>
      </trkpt>
      <trkpt lat="45.30368" lon="14.21243">
        <ele>1049.9</ele>
        <time>2016-06-06T09:03:46Z</time>
      </trkpt>
      <trkpt lat="45.30363" lon="14.21239">
        <ele>1051.34</ele>
        <time>2016-06-06T09:03:58Z</time>
      </trkpt>
      <trkpt lat="45.30359" lon="14.21235">
        <ele>1051.82</ele>
        <time>2016-06-06T09:04:08Z</time>
      </trkpt>
      <trkpt lat="45.30354" lon="14.21233">
        <ele>1053.74</ele>
        <time>2016-06-06T09:04:19Z</time>
      </trkpt>
      <trkpt lat="45.30346" lon="14.21231">
        <ele>1054.7</ele>
        <time>2016-06-06T09:04:30Z</time>
      </trkpt>
      <trkpt lat="45.30337" lon="14.21229">
        <ele>1055.67</ele>
        <time>2016-06-06T09:04:41Z</time>
      </trkpt>
      <trkpt lat="45.30331" lon="14.21225">
        <ele>1057.59</ele>
        <time>2016-06-06T09:04:53Z</time>
      </trkpt>
      <trkpt lat="45.30321" lon="14.21223">
        <ele>1058.55</ele>
        <time>2016-06-06T09:05:07Z</time>
      </trkpt>
      <trkpt lat="45.30316" lon="14.21218">
        <ele>1059.99</ele>
        <time>2016-06-06T09:05:20Z</time>
      </trkpt>
      <trkpt lat="45.30313" lon="14.2121">
        <ele>1061.91</ele>
        <time>2016-06-06T09:05:35Z</time>
      </trkpt>
      <trkpt lat="45.30315" lon="14.21208">
        <ele>1063.36</ele>
        <time>2016-06-06T09:05:53Z</time>
      </trkpt>
      <trkpt lat="45.30314" lon="14.21206">
        <ele>1064.8</ele>
        <time>2016-06-06T09:05:59Z</time>
      </trkpt>
      <trkpt lat="45.30314" lon="14.21203">
        <ele>1066.72</ele>
        <time>2016-06-06T09:06:14Z</time>
      </trkpt>
      <trkpt lat="45.30312" lon="14.21196">
        <ele>1069.12</ele>
        <time>2016-06-06T09:06:29Z</time>
      </trkpt>
      <trkpt lat="45.30308" lon="14.21189">
        <ele>1070.57</ele>
        <time>2016-06-06T09:06:43Z</time>
      </trkpt>
      <trkpt lat="45.30305" lon="14.21184">
        <ele>1072.49</ele>
        <time>2016-06-06T09:06:56Z</time>
      </trkpt>
      <trkpt lat="45.30299" lon="14.21178">
        <ele>1073.45</ele>
        <time>2016-06-06T09:07:07Z</time>
      </trkpt>
      <trkpt lat="45.30292" lon="14.21172">
        <ele>1074.89</ele>
        <time>2016-06-06T09:07:19Z</time>
      </trkpt>
      <trkpt lat="45.30286" lon="14.21168">
        <ele>1076.33</ele>
        <time>2016-06-06T09:07:33Z</time>
      </trkpt>
      <trkpt lat="45.30283" lon="14.21164">
        <ele>1078.26</ele>
        <time>2016-06-06T09:07:46Z</time>
      </trkpt>
      <trkpt lat="45.30276" lon="14.21159">
        <ele>1078.74</ele>
        <time>2016-06-06T09:08:00Z</time>
      </trkpt>
      <trkpt lat="45.30268" lon="14.21152">
        <ele>1080.18</ele>
        <time>2016-06-06T09:08:14Z</time>
      </trkpt>
      <trkpt lat="45.30266" lon="14.2115">
        <ele>1081.14</ele>
        <time>2016-06-06T09:08:20Z</time>
      </trkpt>
      <trkpt lat="45.30258" lon="14.21144">
        <ele>1082.1</ele>
        <time>2016-06-06T09:08:31Z</time>
      </trkpt>
      <trkpt lat="45.30256" lon="14.2114">
        <ele>1083.06</ele>
        <time>2016-06-06T09:08:44Z</time>
      </trkpt>
      <trkpt lat="45.30251" lon="14.21133">
        <ele>1084.99</ele>
        <time>2016-06-06T09:08:56Z</time>
      </trkpt>
      <trkpt lat="45.30246" lon="14.21128">
        <ele>1085.95</ele>
        <time>2016-06-06T09:09:06Z</time>
      </trkpt>
      <trkpt lat="45.3024" lon="14.21123">
        <ele>1086.43</ele>
        <time>2016-06-06T09:09:18Z</time>
      </trkpt>
      <trkpt lat="45.30231" lon="14.21112">
        <ele>1087.87</ele>
        <time>2016-06-06T09:09:31Z</time>
      </trkpt>
      <trkpt lat="45.3022" lon="14.21103">
        <ele>1088.35</ele>
        <time>2016-06-06T09:09:43Z</time>
      </trkpt>
      <trkpt lat="45.30214" lon="14.21094">
        <ele>1088.83</ele>
        <time>2016-06-06T09:09:56Z</time>
      </trkpt>
      <trkpt lat="45.30212" lon="14.21092">
        <ele>1088.83</ele>
        <time>2016-06-06T09:10:02Z</time>
      </trkpt>
      <trkpt lat="45.3021" lon="14.21075">
        <ele>1090.27</ele>
        <time>2016-06-06T09:10:13Z</time>
      </trkpt>
      <trkpt lat="45.30211" lon="14.21062">
        <ele>1090.75</ele>
        <time>2016-06-06T09:10:24Z</time>
      </trkpt>
      <trkpt lat="45.30211" lon="14.21056">
        <ele>1090.75</ele>
        <time>2016-06-06T09:10:38Z</time>
      </trkpt>
      <trkpt lat="45.30209" lon="14.21054">
        <ele>1091.71</ele>
        <time>2016-06-06T09:11:00Z</time>
      </trkpt>
      <trkpt lat="45.30208" lon="14.21054">
        <ele>1092.2</ele>
        <time>2016-06-06T09:11:32Z</time>
      </trkpt>
      <trkpt lat="45.30207" lon="14.21053">
        <ele>1092.2</ele>
        <time>2016-06-06T09:11:54Z</time>
      </trkpt>
      <trkpt lat="45.30207" lon="14.21053">
        <ele>1092.2</ele>
        <time>2016-06-06T09:12:25Z</time>
      </trkpt>
      <trkpt lat="45.30207" lon="14.21051">
        <ele>1092.2</ele>
        <time>2016-06-06T09:13:41Z</time>
      </trkpt>
      <trkpt lat="45.30207" lon="14.21051">
        <ele>1092.68</ele>
        <time>2016-06-06T09:13:58Z</time>
      </trkpt>
      <trkpt lat="45.30197" lon="14.21039">
        <ele>1094.12</ele>
        <time>2016-06-06T09:14:10Z</time>
      </trkpt>
      <trkpt lat="45.30185" lon="14.21038">
        <ele>1094.6</ele>
        <time>2016-06-06T09:14:21Z</time>
      </trkpt>
      <trkpt lat="45.30175" lon="14.21033">
        <ele>1097</ele>
        <time>2016-06-06T09:14:33Z</time>
      </trkpt>
      <trkpt lat="45.30166" lon="14.21028">
        <ele>1098.44</ele>
        <time>2016-06-06T09:14:45Z</time>
      </trkpt>
      <trkpt lat="45.30165" lon="14.21027">
        <ele>1098.92</ele>
        <time>2016-06-06T09:14:48Z</time>
      </trkpt>
      <trkpt lat="45.30157" lon="14.21022">
        <ele>1100.85</ele>
        <time>2016-06-06T09:15:01Z</time>
      </trkpt>
      <trkpt lat="45.30153" lon="14.21011">
        <ele>1102.77</ele>
        <time>2016-06-06T09:15:14Z</time>
      </trkpt>
      <trkpt lat="45.30151" lon="14.21004">
        <ele>1104.69</ele>
        <time>2016-06-06T09:15:23Z</time>
      </trkpt>
      <trkpt lat="45.3015" lon="14.20998">
        <ele>1105.65</ele>
        <time>2016-06-06T09:15:33Z</time>
      </trkpt>
      <trkpt lat="45.3015" lon="14.20992">
        <ele>1107.58</ele>
        <time>2016-06-06T09:15:45Z</time>
      </trkpt>
      <trkpt lat="45.30149" lon="14.20978">
        <ele>1108.06</ele>
        <time>2016-06-06T09:16:00Z</time>
      </trkpt>
      <trkpt lat="45.30141" lon="14.20969">
        <ele>1108.06</ele>
        <time>2016-06-06T09:16:13Z</time>
      </trkpt>
      <trkpt lat="45.30138" lon="14.20968">
        <ele>1109.98</ele>
        <time>2016-06-06T09:16:28Z</time>
      </trkpt>
      <trkpt lat="45.3013" lon="14.20976">
        <ele>1111.9</ele>
        <time>2016-06-06T09:16:39Z</time>
      </trkpt>
      <trkpt lat="45.30126" lon="14.20973">
        <ele>1113.82</ele>
        <time>2016-06-06T09:16:53Z</time>
      </trkpt>
      <trkpt lat="45.30121" lon="14.20966">
        <ele>1115.75</ele>
        <time>2016-06-06T09:17:05Z</time>
      </trkpt>
      <trkpt lat="45.30112" lon="14.20955">
        <ele>1117.19</ele>
        <time>2016-06-06T09:17:19Z</time>
      </trkpt>
      <trkpt lat="45.30106" lon="14.2095">
        <ele>1118.63</ele>
        <time>2016-06-06T09:17:31Z</time>
      </trkpt>
      <trkpt lat="45.30102" lon="14.20942">
        <ele>1120.55</ele>
        <time>2016-06-06T09:17:44Z</time>
      </trkpt>
      <trkpt lat="45.30099" lon="14.20931">
        <ele>1121.52</ele>
        <time>2016-06-06T09:17:57Z</time>
      </trkpt>
      <trkpt lat="45.30097" lon="14.20923">
        <ele>1122.96</ele>
        <time>2016-06-06T09:18:10Z</time>
      </trkpt>
      <trkpt lat="45.30094" lon="14.20915">
        <ele>1124.4</ele>
        <time>2016-06-06T09:18:16Z</time>
      </trkpt>
      <trkpt lat="45.30091" lon="14.209">
        <ele>1125.36</ele>
        <time>2016-06-06T09:18:27Z</time>
      </trkpt>
      <trkpt lat="45.30082" lon="14.20896">
        <ele>1126.32</ele>
        <time>2016-06-06T09:18:37Z</time>
      </trkpt>
      <trkpt lat="45.30079" lon="14.2089">
        <ele>1127.76</ele>
        <time>2016-06-06T09:18:51Z</time>
      </trkpt>
      <trkpt lat="45.30075" lon="14.20886">
        <ele>1130.17</ele>
        <time>2016-06-06T09:19:05Z</time>
      </trkpt>
      <trkpt lat="45.30073" lon="14.2087">
        <ele>1131.61</ele>
        <time>2016-06-06T09:19:19Z</time>
      </trkpt>
      <trkpt lat="45.30073" lon="14.20863">
        <ele>1133.53</ele>
        <time>2016-06-06T09:19:37Z</time>
      </trkpt>
      <trkpt lat="45.30072" lon="14.20858">
        <ele>1134.01</ele>
        <time>2016-06-06T09:19:46Z</time>
      </trkpt>
      <trkpt lat="45.30066" lon="14.20847">
        <ele>1135.94</ele>
        <time>2016-06-06T09:19:59Z</time>
      </trkpt>
      <trkpt lat="45.30065" lon="14.20847">
        <ele>1136.9</ele>
        <time>2016-06-06T09:20:23Z</time>
      </trkpt>
      <trkpt lat="45.30057" lon="14.20846">
        <ele>1138.34</ele>
        <time>2016-06-06T09:20:35Z</time>
      </trkpt>
      <trkpt lat="45.30051" lon="14.20855">
        <ele>1139.78</ele>
        <time>2016-06-06T09:20:47Z</time>
      </trkpt>
      <trkpt lat="45.3005" lon="14.20851">
        <ele>1142.18</ele>
        <time>2016-06-06T09:21:01Z</time>
      </trkpt>
      <trkpt lat="45.30045" lon="14.20845">
        <ele>1143.14</ele>
        <time>2016-06-06T09:21:12Z</time>
      </trkpt>
      <trkpt lat="45.30041" lon="14.20842">
        <ele>1145.07</ele>
        <time>2016-06-06T09:21:23Z</time>
      </trkpt>
      <trkpt lat="45.30036" lon="14.20839">
        <ele>1145.55</ele>
        <time>2016-06-06T09:21:28Z</time>
      </trkpt>
      <trkpt lat="45.30025" lon="14.20837">
        <ele>1146.51</ele>
        <time>2016-06-06T09:21:40Z</time>
      </trkpt>
      <trkpt lat="45.30022" lon="14.20838">
        <ele>1148.43</ele>
        <time>2016-06-06T09:21:50Z</time>
      </trkpt>
      <trkpt lat="45.30017" lon="14.20838">
        <ele>1149.39</ele>
        <time>2016-06-06T09:22:03Z</time>
      </trkpt>
      <trkpt lat="45.30023" lon="14.20834">
        <ele>1151.32</ele>
        <time>2016-06-06T09:22:15Z</time>
      </trkpt>
      <trkpt lat="45.30027" lon="14.20828">
        <ele>1152.76</ele>
        <time>2016-06-06T09:22:27Z</time>
      </trkpt>
      <trkpt lat="45.30032" lon="14.2082">
        <ele>1154.2</ele>
        <time>2016-06-06T09:22:38Z</time>
      </trkpt>
      <trkpt lat="45.30026" lon="14.20817">
        <ele>1156.12</ele>
        <time>2016-06-06T09:22:51Z</time>
      </trkpt>
      <trkpt lat="45.30021" lon="14.20817">
        <ele>1158.05</ele>
        <time>2016-06-06T09:23:06Z</time>
      </trkpt>
      <trkpt lat="45.30015" lon="14.20815">
        <ele>1159.49</ele>
        <time>2016-06-06T09:23:20Z</time>
      </trkpt>
      <trkpt lat="45.3001" lon="14.20811">
        <ele>1160.45</ele>
        <time>2016-06-06T09:23:32Z</time>
      </trkpt>
      <trkpt lat="45.30007" lon="14.20809">
        <ele>1162.85</ele>
        <time>2016-06-06T09:23:48Z</time>
      </trkpt>
      <trkpt lat="45.29997" lon="14.20807">
        <ele>1163.81</ele>
        <time>2016-06-06T09:24:02Z</time>
      </trkpt>
      <trkpt lat="45.29991" lon="14.20805">
        <ele>1165.74</ele>
        <time>2016-06-06T09:24:14Z</time>
      </trkpt>
      <trkpt lat="45.29993" lon="14.20805">
        <ele>1167.18</ele>
        <time>2016-06-06T09:24:25Z</time>
      </trkpt>
      <trkpt lat="45.29995" lon="14.20802">
        <ele>1168.14</ele>
        <time>2016-06-06T09:24:37Z</time>
      </trkpt>
      <trkpt lat="45.30005" lon="14.20795">
        <ele>1169.58</ele>
        <time>2016-06-06T09:24:50Z</time>
      </trkpt>
      <trkpt lat="45.30006" lon="14.2078">
        <ele>1171.5</ele>
        <time>2016-06-06T09:25:05Z</time>
      </trkpt>
      <trkpt lat="45.30003" lon="14.20774">
        <ele>1173.43</ele>
        <time>2016-06-06T09:25:16Z</time>
      </trkpt>
      <trkpt lat="45.3" lon="14.2077">
        <ele>1175.35</ele>
        <time>2016-06-06T09:25:28Z</time>
      </trkpt>
      <trkpt lat="45.29986" lon="14.20769">
        <ele>1177.27</ele>
        <time>2016-06-06T09:25:46Z</time>
      </trkpt>
      <trkpt lat="45.29982" lon="14.20766">
        <ele>1179.19</ele>
        <time>2016-06-06T09:26:00Z</time>
      </trkpt>
      <trkpt lat="45.29981" lon="14.20763">
        <ele>1180.64</ele>
        <time>2016-06-06T09:26:14Z</time>
      </trkpt>
      <trkpt lat="45.29981" lon="14.20761">
        <ele>1183.52</ele>
        <time>2016-06-06T09:26:32Z</time>
      </trkpt>
      <trkpt lat="45.29976" lon="14.20749">
        <ele>1184</ele>
        <time>2016-06-06T09:26:43Z</time>
      </trkpt>
      <trkpt lat="45.29973" lon="14.20746">
        <ele>1185.44</ele>
        <time>2016-06-06T09:26:55Z</time>
      </trkpt>
      <trkpt lat="45.29963" lon="14.20748">
        <ele>1187.85</ele>
        <time>2016-06-06T09:27:13Z</time>
      </trkpt>
      <trkpt lat="45.29958" lon="14.20747">
        <ele>1189.29</ele>
        <time>2016-06-06T09:27:27Z</time>
      </trkpt>
      <trkpt lat="45.29955" lon="14.20743">
        <ele>1191.69</ele>
        <time>2016-06-06T09:27:40Z</time>
      </trkpt>
      <trkpt lat="45.29953" lon="14.20741">
        <ele>1193.13</ele>
        <time>2016-06-06T09:27:57Z</time>
      </trkpt>
      <trkpt lat="45.29946" lon="14.20743">
        <ele>1195.54</ele>
        <time>2016-06-06T09:28:12Z</time>
      </trkpt>
      <trkpt lat="45.2994" lon="14.20745">
        <ele>1195.54</ele>
        <time>2016-06-06T09:28:24Z</time>
      </trkpt>
      <trkpt lat="45.29928" lon="14.20757">
        <ele>1196.02</ele>
        <time>2016-06-06T09:28:38Z</time>
      </trkpt>
      <trkpt lat="45.29921" lon="14.20758">
        <ele>1196.98</ele>
        <time>2016-06-06T09:28:49Z</time>
      </trkpt>
      <trkpt lat="45.29915" lon="14.20756">
        <ele>1197.46</ele>
        <time>2016-06-06T09:28:57Z</time>
      </trkpt>
      <trkpt lat="45.29906" lon="14.20752">
        <ele>1197.94</ele>
        <time>2016-06-06T09:29:09Z</time>
      </trkpt>
      <trkpt lat="45.299" lon="14.20748">
        <ele>1199.38</ele>
        <time>2016-06-06T09:29:20Z</time>
      </trkpt>
      <trkpt lat="45.29895" lon="14.2074">
        <ele>1200.34</ele>
        <time>2016-06-06T09:29:33Z</time>
      </trkpt>
      <trkpt lat="45.29892" lon="14.20732">
        <ele>1202.27</ele>
        <time>2016-06-06T09:29:45Z</time>
      </trkpt>
      <trkpt lat="45.29887" lon="14.20723">
        <ele>1203.71</ele>
        <time>2016-06-06T09:29:57Z</time>
      </trkpt>
      <trkpt lat="45.29881" lon="14.2072">
        <ele>1205.63</ele>
        <time>2016-06-06T09:30:09Z</time>
      </trkpt>
      <trkpt lat="45.29865" lon="14.20716">
        <ele>1206.59</ele>
        <time>2016-06-06T09:30:22Z</time>
      </trkpt>
      <trkpt lat="45.29859" lon="14.20713">
        <ele>1208.03</ele>
        <time>2016-06-06T09:30:33Z</time>
      </trkpt>
      <trkpt lat="45.29848" lon="14.20709">
        <ele>1209</ele>
        <time>2016-06-06T09:30:45Z</time>
      </trkpt>
      <trkpt lat="45.29839" lon="14.20705">
        <ele>1209.96</ele>
        <time>2016-06-06T09:30:55Z</time>
      </trkpt>
      <trkpt lat="45.29837" lon="14.20705">
        <ele>1209.96</ele>
        <time>2016-06-06T09:30:57Z</time>
      </trkpt>
      <trkpt lat="45.29826" lon="14.20699">
        <ele>1211.4</ele>
        <time>2016-06-06T09:31:09Z</time>
      </trkpt>
      <trkpt lat="45.29822" lon="14.20695">
        <ele>1211.4</ele>
        <time>2016-06-06T09:31:16Z</time>
      </trkpt>
      <trkpt lat="45.29811" lon="14.20694">
        <ele>1212.36</ele>
        <time>2016-06-06T09:31:29Z</time>
      </trkpt>
      <trkpt lat="45.29802" lon="14.20691">
        <ele>1213.8</ele>
        <time>2016-06-06T09:31:43Z</time>
      </trkpt>
      <trkpt lat="45.29799" lon="14.20686">
        <ele>1215.24</ele>
        <time>2016-06-06T09:31:57Z</time>
      </trkpt>
      <trkpt lat="45.29792" lon="14.20679">
        <ele>1216.21</ele>
        <time>2016-06-06T09:32:08Z</time>
      </trkpt>
      <trkpt lat="45.29782" lon="14.20669">
        <ele>1217.17</ele>
        <time>2016-06-06T09:32:24Z</time>
      </trkpt>
      <trkpt lat="45.29776" lon="14.2066">
        <ele>1218.61</ele>
        <time>2016-06-06T09:32:37Z</time>
      </trkpt>
      <trkpt lat="45.29769" lon="14.2065">
        <ele>1220.05</ele>
        <time>2016-06-06T09:32:48Z</time>
      </trkpt>
      <trkpt lat="45.29766" lon="14.20642">
        <ele>1221.49</ele>
        <time>2016-06-06T09:33:01Z</time>
      </trkpt>
      <trkpt lat="45.29763" lon="14.20635">
        <ele>1222.93</ele>
        <time>2016-06-06T09:33:13Z</time>
      </trkpt>
      <trkpt lat="45.29751" lon="14.20623">
        <ele>1224.38</ele>
        <time>2016-06-06T09:33:26Z</time>
      </trkpt>
      <trkpt lat="45.29744" lon="14.20618">
        <ele>1225.34</ele>
        <time>2016-06-06T09:33:37Z</time>
      </trkpt>
      <trkpt lat="45.29734" lon="14.20616">
        <ele>1226.78</ele>
        <time>2016-06-06T09:33:53Z</time>
      </trkpt>
      <trkpt lat="45.29726" lon="14.20612">
        <ele>1228.22</ele>
        <time>2016-06-06T09:34:06Z</time>
      </trkpt>
      <trkpt lat="45.29718" lon="14.20606">
        <ele>1229.18</ele>
        <time>2016-06-06T09:34:18Z</time>
      </trkpt>
      <trkpt lat="45.29709" lon="14.20601">
        <ele>1230.62</ele>
        <time>2016-06-06T09:34:31Z</time>
      </trkpt>
      <trkpt lat="45.29701" lon="14.20596">
        <ele>1232.07</ele>
        <time>2016-06-06T09:34:44Z</time>
      </trkpt>
      <trkpt lat="45.29694" lon="14.20591">
        <ele>1233.51</ele>
        <time>2016-06-06T09:34:57Z</time>
      </trkpt>
      <trkpt lat="45.2969" lon="14.20585">
        <ele>1234.95</ele>
        <time>2016-06-06T09:35:11Z</time>
      </trkpt>
      <trkpt lat="45.29685" lon="14.20582">
        <ele>1235.91</ele>
        <time>2016-06-06T09:35:24Z</time>
      </trkpt>
      <trkpt lat="45.29673" lon="14.2058">
        <ele>1236.39</ele>
        <time>2016-06-06T09:35:35Z</time>
      </trkpt>
      <trkpt lat="45.29666" lon="14.20575">
        <ele>1237.35</ele>
        <time>2016-06-06T09:35:48Z</time>
      </trkpt>
      <trkpt lat="45.29661" lon="14.20562">
        <ele>1238.32</ele>
        <time>2016-06-06T09:36:01Z</time>
      </trkpt>
      <trkpt lat="45.2965" lon="14.20558">
        <ele>1239.28</ele>
        <time>2016-06-06T09:36:15Z</time>
      </trkpt>
      <trkpt lat="45.29634" lon="14.20551">
        <ele>1239.76</ele>
        <time>2016-06-06T09:36:28Z</time>
      </trkpt>
      <trkpt lat="45.29624" lon="14.20549">
        <ele>1241.2</ele>
        <time>2016-06-06T09:36:40Z</time>
      </trkpt>
      <trkpt lat="45.29612" lon="14.20549">
        <ele>1242.16</ele>
        <time>2016-06-06T09:36:53Z</time>
      </trkpt>
      <trkpt lat="45.29602" lon="14.20553">
        <ele>1243.12</ele>
        <time>2016-06-06T09:37:07Z</time>
      </trkpt>
      <trkpt lat="45.29598" lon="14.20555">
        <ele>1244.08</ele>
        <time>2016-06-06T09:37:18Z</time>
      </trkpt>
      <trkpt lat="45.29589" lon="14.20557">
        <ele>1244.56</ele>
        <time>2016-06-06T09:37:28Z</time>
      </trkpt>
      <trkpt lat="45.29577" lon="14.20567">
        <ele>1244.56</ele>
        <time>2016-06-06T09:37:43Z</time>
      </trkpt>
      <trkpt lat="45.29573" lon="14.20578">
        <ele>1246.01</ele>
        <time>2016-06-06T09:37:53Z</time>
      </trkpt>
      <trkpt lat="45.2957" lon="14.20593">
        <ele>1246.49</ele>
        <time>2016-06-06T09:38:04Z</time>
      </trkpt>
      <trkpt lat="45.29558" lon="14.20609">
        <ele>1247.93</ele>
        <time>2016-06-06T09:38:19Z</time>
      </trkpt>
      <trkpt lat="45.29554" lon="14.2061">
        <ele>1248.89</ele>
        <time>2016-06-06T09:38:32Z</time>
      </trkpt>
      <trkpt lat="45.29546" lon="14.20611">
        <ele>1251.29</ele>
        <time>2016-06-06T09:38:45Z</time>
      </trkpt>
      <trkpt lat="45.29536" lon="14.20608">
        <ele>1250.33</ele>
        <time>2016-06-06T09:38:58Z</time>
      </trkpt>
      <trkpt lat="45.29532" lon="14.20606">
        <ele>1249.85</ele>
        <time>2016-06-06T09:39:14Z</time>
      </trkpt>
      <trkpt lat="45.29527" lon="14.20617">
        <ele>1249.37</ele>
        <time>2016-06-06T09:39:46Z</time>
      </trkpt>
      <trkpt lat="45.29527" lon="14.20603">
        <ele>1249.37</ele>
        <time>2016-06-06T09:40:18Z</time>
      </trkpt>
      <trkpt lat="45.29521" lon="14.2061">
        <ele>1250.81</ele>
        <time>2016-06-06T09:41:16Z</time>
      </trkpt>
      <trkpt lat="45.29521" lon="14.20611">
        <ele>1250.33</ele>
        <time>2016-06-06T09:41:26Z</time>
      </trkpt>
      <trkpt lat="45.29521" lon="14.20611">
        <ele>1247.45</ele>
        <time>2016-06-06T09:41:48Z</time>
      </trkpt>
      <trkpt lat="45.29521" lon="14.20611">
        <ele>1244.56</ele>
        <time>2016-06-06T09:42:11Z</time>
      </trkpt>
      <trkpt lat="45.29521" lon="14.20611">
        <ele>1241.2</ele>
        <time>2016-06-06T09:42:31Z</time>
      </trkpt>
      <trkpt lat="45.29521" lon="14.20611">
        <ele>1238.32</ele>
        <time>2016-06-06T09:42:56Z</time>
      </trkpt>
      <trkpt lat="45.29521" lon="14.20611">
        <ele>1234.95</ele>
        <time>2016-06-06T09:43:12Z</time>
      </trkpt>
      <trkpt lat="45.29521" lon="14.20611">
        <ele>1232.07</ele>
        <time>2016-06-06T09:43:24Z</time>
      </trkpt>
      <trkpt lat="45.29647" lon="14.20463">
        <ele>1231.59</ele>
        <time>2016-06-06T09:46:18Z</time>
      </trkpt>
      <trkpt lat="45.29641" lon="14.20468">
        <ele>1232.55</ele>
        <time>2016-06-06T09:46:33Z</time>
      </trkpt>
      <trkpt lat="45.29638" lon="14.20468">
        <ele>1235.43</ele>
        <time>2016-06-06T09:46:50Z</time>
      </trkpt>
      <trkpt lat="45.29637" lon="14.20463">
        <ele>1236.39</ele>
        <time>2016-06-06T09:47:06Z</time>
      </trkpt>
      <trkpt lat="45.2964" lon="14.20451">
        <ele>1238.32</ele>
        <time>2016-06-06T09:47:24Z</time>
      </trkpt>
      <trkpt lat="45.29639" lon="14.20435">
        <ele>1239.28</ele>
        <time>2016-06-06T09:47:38Z</time>
      </trkpt>
      <trkpt lat="45.29637" lon="14.20418">
        <ele>1238.8</ele>
        <time>2016-06-06T09:47:49Z</time>
      </trkpt>
      <trkpt lat="45.29638" lon="14.20392">
        <ele>1238.8</ele>
        <time>2016-06-06T09:48:05Z</time>
      </trkpt>
      <trkpt lat="45.29634" lon="14.20378">
        <ele>1238.8</ele>
        <time>2016-06-06T09:48:18Z</time>
      </trkpt>
      <trkpt lat="45.29631" lon="14.20359">
        <ele>1239.76</ele>
        <time>2016-06-06T09:48:31Z</time>
      </trkpt>
      <trkpt lat="45.29628" lon="14.20352">
        <ele>1240.72</ele>
        <time>2016-06-06T09:48:41Z</time>
      </trkpt>
      <trkpt lat="45.29621" lon="14.20347">
        <ele>1240.72</ele>
        <time>2016-06-06T09:48:53Z</time>
      </trkpt>
      <trkpt lat="45.2962" lon="14.20342">
        <ele>1244.08</ele>
        <time>2016-06-06T09:49:09Z</time>
      </trkpt>
      <trkpt lat="45.29607" lon="14.20319">
        <ele>1244.08</ele>
        <time>2016-06-06T09:49:22Z</time>
      </trkpt>
      <trkpt lat="45.29601" lon="14.20299">
        <ele>1245.53</ele>
        <time>2016-06-06T09:49:34Z</time>
      </trkpt>
      <trkpt lat="45.29593" lon="14.20293">
        <ele>1246.97</ele>
        <time>2016-06-06T09:49:53Z</time>
      </trkpt>
      <trkpt lat="45.2961" lon="14.20281">
        <ele>1246.97</ele>
        <time>2016-06-06T09:50:10Z</time>
      </trkpt>
      <trkpt lat="45.29614" lon="14.20279">
        <ele>1246.97</ele>
        <time>2016-06-06T09:50:38Z</time>
      </trkpt>
      <trkpt lat="45.29611" lon="14.20283">
        <ele>1246.49</ele>
        <time>2016-06-06T09:51:15Z</time>
      </trkpt>
      <trkpt lat="45.29611" lon="14.20284">
        <ele>1246.97</ele>
        <time>2016-06-06T09:51:59Z</time>
      </trkpt>
      <trkpt lat="45.29607" lon="14.20283">
        <ele>1246.01</ele>
        <time>2016-06-06T09:52:45Z</time>
      </trkpt>
      <trkpt lat="45.29604" lon="14.20282">
        <ele>1246.49</ele>
        <time>2016-06-06T09:52:49Z</time>
      </trkpt>
      <trkpt lat="45.29601" lon="14.20281">
        <ele>1246.01</ele>
        <time>2016-06-06T09:52:52Z</time>
      </trkpt>
      <trkpt lat="45.29589" lon="14.20278">
        <ele>1246.01</ele>
        <time>2016-06-06T09:53:05Z</time>
      </trkpt>
      <trkpt lat="45.29586" lon="14.20277">
        <ele>1246.49</ele>
        <time>2016-06-06T09:53:09Z</time>
      </trkpt>
      <trkpt lat="45.29581" lon="14.20276">
        <ele>1246.97</ele>
        <time>2016-06-06T09:53:14Z</time>
      </trkpt>
      <trkpt lat="45.29574" lon="14.20274">
        <ele>1247.93</ele>
        <time>2016-06-06T09:53:27Z</time>
      </trkpt>
      <trkpt lat="45.29565" lon="14.20274">
        <ele>1248.41</ele>
        <time>2016-06-06T09:53:39Z</time>
      </trkpt>
      <trkpt lat="45.29555" lon="14.20277">
        <ele>1249.37</ele>
        <time>2016-06-06T09:53:51Z</time>
      </trkpt>
      <trkpt lat="45.29543" lon="14.20276">
        <ele>1250.81</ele>
        <time>2016-06-06T09:54:04Z</time>
      </trkpt>
      <trkpt lat="45.29531" lon="14.20274">
        <ele>1253.7</ele>
        <time>2016-06-06T09:54:18Z</time>
      </trkpt>
      <trkpt lat="45.29523" lon="14.20271">
        <ele>1254.18</ele>
        <time>2016-06-06T09:54:31Z</time>
      </trkpt>
      <trkpt lat="45.29515" lon="14.20267">
        <ele>1256.58</ele>
        <time>2016-06-06T09:54:45Z</time>
      </trkpt>
      <trkpt lat="45.29511" lon="14.20265">
        <ele>1258.98</ele>
        <time>2016-06-06T09:54:59Z</time>
      </trkpt>
      <trkpt lat="45.29506" lon="14.20267">
        <ele>1259.94</ele>
        <time>2016-06-06T09:55:11Z</time>
      </trkpt>
      <trkpt lat="45.29496" lon="14.20265">
        <ele>1261.87</ele>
        <time>2016-06-06T09:55:27Z</time>
      </trkpt>
      <trkpt lat="45.29487" lon="14.20265">
        <ele>1263.31</ele>
        <time>2016-06-06T09:55:40Z</time>
      </trkpt>
      <trkpt lat="45.29486" lon="14.20263">
        <ele>1265.23</ele>
        <time>2016-06-06T09:55:53Z</time>
      </trkpt>
      <trkpt lat="45.29482" lon="14.20258">
        <ele>1266.67</ele>
        <time>2016-06-06T09:56:08Z</time>
      </trkpt>
      <trkpt lat="45.29477" lon="14.20253">
        <ele>1268.6</ele>
        <time>2016-06-06T09:56:23Z</time>
      </trkpt>
      <trkpt lat="45.29472" lon="14.20252">
        <ele>1271</ele>
        <time>2016-06-06T09:56:36Z</time>
      </trkpt>
      <trkpt lat="45.29463" lon="14.20248">
        <ele>1271.48</ele>
        <time>2016-06-06T09:56:48Z</time>
      </trkpt>
      <trkpt lat="45.29452" lon="14.20241">
        <ele>1272.92</ele>
        <time>2016-06-06T09:57:00Z</time>
      </trkpt>
      <trkpt lat="45.29445" lon="14.20242">
        <ele>1271.48</ele>
        <time>2016-06-06T09:57:11Z</time>
      </trkpt>
      <trkpt lat="45.29445" lon="14.20242">
        <ele>1271</ele>
        <time>2016-06-06T09:57:12Z</time>
      </trkpt>
      <trkpt lat="45.29433" lon="14.20248">
        <ele>1270.52</ele>
        <time>2016-06-06T09:57:24Z</time>
      </trkpt>
      <trkpt lat="45.29425" lon="14.20249">
        <ele>1270.52</ele>
        <time>2016-06-06T09:57:28Z</time>
      </trkpt>
      <trkpt lat="45.29416" lon="14.20253">
        <ele>1271.96</ele>
        <time>2016-06-06T09:57:41Z</time>
      </trkpt>
      <trkpt lat="45.29412" lon="14.20257">
        <ele>1273.88</ele>
        <time>2016-06-06T09:58:00Z</time>
      </trkpt>
      <trkpt lat="45.29405" lon="14.20268">
        <ele>1274.85</ele>
        <time>2016-06-06T09:58:13Z</time>
      </trkpt>
      <trkpt lat="45.29397" lon="14.2028">
        <ele>1276.77</ele>
        <time>2016-06-06T09:58:26Z</time>
      </trkpt>
      <trkpt lat="45.29395" lon="14.20287">
        <ele>1279.17</ele>
        <time>2016-06-06T09:58:40Z</time>
      </trkpt>
      <trkpt lat="45.29392" lon="14.20292">
        <ele>1280.13</ele>
        <time>2016-06-06T09:58:46Z</time>
      </trkpt>
      <trkpt lat="45.29389" lon="14.20298">
        <ele>1280.61</ele>
        <time>2016-06-06T09:58:50Z</time>
      </trkpt>
      <trkpt lat="45.29388" lon="14.20308">
        <ele>1282.06</ele>
        <time>2016-06-06T09:59:03Z</time>
      </trkpt>
      <trkpt lat="45.2939" lon="14.20317">
        <ele>1282.54</ele>
        <time>2016-06-06T09:59:13Z</time>
      </trkpt>
      <trkpt lat="45.29389" lon="14.20323">
        <ele>1283.5</ele>
        <time>2016-06-06T09:59:24Z</time>
      </trkpt>
      <trkpt lat="45.29389" lon="14.20328">
        <ele>1286.38</ele>
        <time>2016-06-06T09:59:42Z</time>
      </trkpt>
      <trkpt lat="45.29387" lon="14.20333">
        <ele>1287.82</ele>
        <time>2016-06-06T09:59:55Z</time>
      </trkpt>
      <trkpt lat="45.29385" lon="14.20336">
        <ele>1289.75</ele>
        <time>2016-06-06T10:00:10Z</time>
      </trkpt>
      <trkpt lat="45.2938" lon="14.2034">
        <ele>1290.23</ele>
        <time>2016-06-06T10:00:21Z</time>
      </trkpt>
      <trkpt lat="45.29373" lon="14.20348">
        <ele>1290.71</ele>
        <time>2016-06-06T10:00:32Z</time>
      </trkpt>
      <trkpt lat="45.29368" lon="14.20351">
        <ele>1292.15</ele>
        <time>2016-06-06T10:00:46Z</time>
      </trkpt>
      <trkpt lat="45.29356" lon="14.20356">
        <ele>1294.55</ele>
        <time>2016-06-06T10:00:58Z</time>
      </trkpt>
      <trkpt lat="45.29344" lon="14.20359">
        <ele>1295.51</ele>
        <time>2016-06-06T10:01:13Z</time>
      </trkpt>
      <trkpt lat="45.29337" lon="14.20361">
        <ele>1296.48</ele>
        <time>2016-06-06T10:01:25Z</time>
      </trkpt>
      <trkpt lat="45.29333" lon="14.20364">
        <ele>1298.4</ele>
        <time>2016-06-06T10:01:39Z</time>
      </trkpt>
      <trkpt lat="45.29327" lon="14.20365">
        <ele>1300.32</ele>
        <time>2016-06-06T10:01:52Z</time>
      </trkpt>
      <trkpt lat="45.29319" lon="14.20366">
        <ele>1303.2</ele>
        <time>2016-06-06T10:02:06Z</time>
      </trkpt>
      <trkpt lat="45.29313" lon="14.20366">
        <ele>1303.69</ele>
        <time>2016-06-06T10:02:16Z</time>
      </trkpt>
      <trkpt lat="45.29306" lon="14.20362">
        <ele>1305.13</ele>
        <time>2016-06-06T10:02:28Z</time>
      </trkpt>
      <trkpt lat="45.293" lon="14.2036">
        <ele>1306.57</ele>
        <time>2016-06-06T10:02:40Z</time>
      </trkpt>
      <trkpt lat="45.29295" lon="14.2036">
        <ele>1308.97</ele>
        <time>2016-06-06T10:02:56Z</time>
      </trkpt>
      <trkpt lat="45.29288" lon="14.20357">
        <ele>1309.93</ele>
        <time>2016-06-06T10:03:11Z</time>
      </trkpt>
      <trkpt lat="45.29288" lon="14.20357">
        <ele>1312.34</ele>
        <time>2016-06-06T10:03:34Z</time>
      </trkpt>
      <trkpt lat="45.29287" lon="14.20356">
        <ele>1313.3</ele>
        <time>2016-06-06T10:03:51Z</time>
      </trkpt>
      <trkpt lat="45.29283" lon="14.20349">
        <ele>1315.22</ele>
        <time>2016-06-06T10:04:04Z</time>
      </trkpt>
      <trkpt lat="45.2928" lon="14.20347">
        <ele>1318.1</ele>
        <time>2016-06-06T10:04:19Z</time>
      </trkpt>
      <trkpt lat="45.29274" lon="14.20347">
        <ele>1319.55</ele>
        <time>2016-06-06T10:04:33Z</time>
      </trkpt>
      <trkpt lat="45.29262" lon="14.20349">
        <ele>1320.03</ele>
        <time>2016-06-06T10:04:47Z</time>
      </trkpt>
      <trkpt lat="45.29255" lon="14.20348">
        <ele>1320.99</ele>
        <time>2016-06-06T10:04:59Z</time>
      </trkpt>
      <trkpt lat="45.29252" lon="14.20348">
        <ele>1322.91</ele>
        <time>2016-06-06T10:05:06Z</time>
      </trkpt>
      <trkpt lat="45.29251" lon="14.20348">
        <ele>1324.35</ele>
        <time>2016-06-06T10:05:19Z</time>
      </trkpt>
      <trkpt lat="45.29245" lon="14.20351">
        <ele>1326.28</ele>
        <time>2016-06-06T10:05:34Z</time>
      </trkpt>
      <trkpt lat="45.29238" lon="14.20358">
        <ele>1328.2</ele>
        <time>2016-06-06T10:05:47Z</time>
      </trkpt>
      <trkpt lat="45.29235" lon="14.20365">
        <ele>1329.16</ele>
        <time>2016-06-06T10:06:02Z</time>
      </trkpt>
      <trkpt lat="45.29231" lon="14.20373">
        <ele>1330.6</ele>
        <time>2016-06-06T10:06:15Z</time>
      </trkpt>
      <trkpt lat="45.29223" lon="14.20382">
        <ele>1332.04</ele>
        <time>2016-06-06T10:06:30Z</time>
      </trkpt>
      <trkpt lat="45.29215" lon="14.2039">
        <ele>1333.49</ele>
        <time>2016-06-06T10:06:42Z</time>
      </trkpt>
      <trkpt lat="45.29212" lon="14.20397">
        <ele>1335.41</ele>
        <time>2016-06-06T10:06:56Z</time>
      </trkpt>
      <trkpt lat="45.2921" lon="14.20399">
        <ele>1336.85</ele>
        <time>2016-06-06T10:07:11Z</time>
      </trkpt>
      <trkpt lat="45.29203" lon="14.20406">
        <ele>1338.77</ele>
        <time>2016-06-06T10:07:25Z</time>
      </trkpt>
      <trkpt lat="45.29198" lon="14.2041">
        <ele>1340.22</ele>
        <time>2016-06-06T10:07:36Z</time>
      </trkpt>
      <trkpt lat="45.29197" lon="14.20411">
        <ele>1343.1</ele>
        <time>2016-06-06T10:07:53Z</time>
      </trkpt>
      <trkpt lat="45.29195" lon="14.2041">
        <ele>1343.58</ele>
        <time>2016-06-06T10:07:57Z</time>
      </trkpt>
      <trkpt lat="45.29186" lon="14.20411">
        <ele>1345.02</ele>
        <time>2016-06-06T10:08:06Z</time>
      </trkpt>
      <trkpt lat="45.29175" lon="14.20411">
        <ele>1344.06</ele>
        <time>2016-06-06T10:08:19Z</time>
      </trkpt>
      <trkpt lat="45.29166" lon="14.20405">
        <ele>1343.1</ele>
        <time>2016-06-06T10:08:30Z</time>
      </trkpt>
      <trkpt lat="45.29157" lon="14.20404">
        <ele>1341.66</ele>
        <time>2016-06-06T10:08:41Z</time>
      </trkpt>
      <trkpt lat="45.29145" lon="14.20404">
        <ele>1339.73</ele>
        <time>2016-06-06T10:08:53Z</time>
      </trkpt>
      <trkpt lat="45.29136" lon="14.20399">
        <ele>1338.29</ele>
        <time>2016-06-06T10:09:07Z</time>
      </trkpt>
      <trkpt lat="45.29136" lon="14.20399">
        <ele>1337.81</ele>
        <time>2016-06-06T10:09:39Z</time>
      </trkpt>
      <trkpt lat="45.29136" lon="14.20398">
        <ele>1338.29</ele>
        <time>2016-06-06T10:10:29Z</time>
      </trkpt>
      <trkpt lat="45.29131" lon="14.20395">
        <ele>1337.33</ele>
        <time>2016-06-06T10:11:38Z</time>
      </trkpt>
      <trkpt lat="45.29126" lon="14.20387">
        <ele>1334.93</ele>
        <time>2016-06-06T10:11:52Z</time>
      </trkpt>
      <trkpt lat="45.29119" lon="14.20375">
        <ele>1332.04</ele>
        <time>2016-06-06T10:12:07Z</time>
      </trkpt>
      <trkpt lat="45.2911" lon="14.20361">
        <ele>1330.12</ele>
        <time>2016-06-06T10:12:21Z</time>
      </trkpt>
      <trkpt lat="45.29099" lon="14.20348">
        <ele>1327.24</ele>
        <time>2016-06-06T10:12:36Z</time>
      </trkpt>
      <trkpt lat="45.29086" lon="14.20338">
        <ele>1324.35</ele>
        <time>2016-06-06T10:12:53Z</time>
      </trkpt>
      <trkpt lat="45.29074" lon="14.20331">
        <ele>1321.95</ele>
        <time>2016-06-06T10:13:08Z</time>
      </trkpt>
      <trkpt lat="45.29068" lon="14.20329">
        <ele>1318.59</ele>
        <time>2016-06-06T10:13:18Z</time>
      </trkpt>
      <trkpt lat="45.29054" lon="14.20322">
        <ele>1317.14</ele>
        <time>2016-06-06T10:13:30Z</time>
      </trkpt>
      <trkpt lat="45.29041" lon="14.20319">
        <ele>1317.14</ele>
        <time>2016-06-06T10:13:43Z</time>
      </trkpt>
      <trkpt lat="45.29033" lon="14.20309">
        <ele>1316.66</ele>
        <time>2016-06-06T10:13:54Z</time>
      </trkpt>
      <trkpt lat="45.29018" lon="14.203">
        <ele>1317.62</ele>
        <time>2016-06-06T10:14:08Z</time>
      </trkpt>
      <trkpt lat="45.29012" lon="14.20293">
        <ele>1317.14</ele>
        <time>2016-06-06T10:14:15Z</time>
      </trkpt>
      <trkpt lat="45.28998" lon="14.20293">
        <ele>1319.07</ele>
        <time>2016-06-06T10:14:31Z</time>
      </trkpt>
      <trkpt lat="45.28992" lon="14.20296">
        <ele>1320.51</ele>
        <time>2016-06-06T10:14:42Z</time>
      </trkpt>
      <trkpt lat="45.28987" lon="14.20298">
        <ele>1320.99</ele>
        <time>2016-06-06T10:14:52Z</time>
      </trkpt>
      <trkpt lat="45.28982" lon="14.20303">
        <ele>1323.39</ele>
        <time>2016-06-06T10:15:04Z</time>
      </trkpt>
      <trkpt lat="45.2897" lon="14.20306">
        <ele>1323.87</ele>
        <time>2016-06-06T10:15:12Z</time>
      </trkpt>
      <trkpt lat="45.28962" lon="14.20313">
        <ele>1325.31</ele>
        <time>2016-06-06T10:15:23Z</time>
      </trkpt>
      <trkpt lat="45.28958" lon="14.2032">
        <ele>1326.28</ele>
        <time>2016-06-06T10:15:30Z</time>
      </trkpt>
      <trkpt lat="45.28952" lon="14.20328">
        <ele>1327.72</ele>
        <time>2016-06-06T10:15:43Z</time>
      </trkpt>
      <trkpt lat="45.28945" lon="14.20338">
        <ele>1327.72</ele>
        <time>2016-06-06T10:15:48Z</time>
      </trkpt>
      <trkpt lat="45.28929" lon="14.20363">
        <ele>1329.16</ele>
        <time>2016-06-06T10:16:00Z</time>
      </trkpt>
      <trkpt lat="45.28922" lon="14.20376">
        <ele>1330.6</ele>
        <time>2016-06-06T10:16:12Z</time>
      </trkpt>
      <trkpt lat="45.28913" lon="14.20386">
        <ele>1331.56</ele>
        <time>2016-06-06T10:16:26Z</time>
      </trkpt>
      <trkpt lat="45.28902" lon="14.20392">
        <ele>1333.01</ele>
        <time>2016-06-06T10:16:37Z</time>
      </trkpt>
      <trkpt lat="45.28892" lon="14.20396">
        <ele>1334.93</ele>
        <time>2016-06-06T10:16:49Z</time>
      </trkpt>
      <trkpt lat="45.28881" lon="14.20401">
        <ele>1336.37</ele>
        <time>2016-06-06T10:17:02Z</time>
      </trkpt>
      <trkpt lat="45.28869" lon="14.20405">
        <ele>1337.33</ele>
        <time>2016-06-06T10:17:15Z</time>
      </trkpt>
      <trkpt lat="45.28859" lon="14.20408">
        <ele>1338.77</ele>
        <time>2016-06-06T10:17:30Z</time>
      </trkpt>
      <trkpt lat="45.28849" lon="14.20411">
        <ele>1339.73</ele>
        <time>2016-06-06T10:17:42Z</time>
      </trkpt>
      <trkpt lat="45.28832" lon="14.20417">
        <ele>1341.66</ele>
        <time>2016-06-06T10:17:56Z</time>
      </trkpt>
      <trkpt lat="45.28819" lon="14.20421">
        <ele>1342.14</ele>
        <time>2016-06-06T10:18:09Z</time>
      </trkpt>
      <trkpt lat="45.28806" lon="14.20428">
        <ele>1344.06</ele>
        <time>2016-06-06T10:18:22Z</time>
      </trkpt>
      <trkpt lat="45.28792" lon="14.20435">
        <ele>1345.02</ele>
        <time>2016-06-06T10:18:33Z</time>
      </trkpt>
      <trkpt lat="45.2878" lon="14.20436">
        <ele>1345.5</ele>
        <time>2016-06-06T10:18:45Z</time>
      </trkpt>
      <trkpt lat="45.28766" lon="14.20431">
        <ele>1347.43</ele>
        <time>2016-06-06T10:18:59Z</time>
      </trkpt>
      <trkpt lat="45.28763" lon="14.20424">
        <ele>1348.87</ele>
        <time>2016-06-06T10:19:14Z</time>
      </trkpt>
      <trkpt lat="45.28754" lon="14.20416">
        <ele>1350.31</ele>
        <time>2016-06-06T10:19:26Z</time>
      </trkpt>
      <trkpt lat="45.28748" lon="14.20409">
        <ele>1351.75</ele>
        <time>2016-06-06T10:19:40Z</time>
      </trkpt>
      <trkpt lat="45.28743" lon="14.20399">
        <ele>1352.71</ele>
        <time>2016-06-06T10:19:50Z</time>
      </trkpt>
      <trkpt lat="45.28739" lon="14.2039">
        <ele>1353.67</ele>
        <time>2016-06-06T10:20:01Z</time>
      </trkpt>
      <trkpt lat="45.28735" lon="14.20383">
        <ele>1355.6</ele>
        <time>2016-06-06T10:20:15Z</time>
      </trkpt>
      <trkpt lat="45.28729" lon="14.20366">
        <ele>1357.04</ele>
        <time>2016-06-06T10:20:29Z</time>
      </trkpt>
      <trkpt lat="45.28726" lon="14.20364">
        <ele>1358.48</ele>
        <time>2016-06-06T10:20:41Z</time>
      </trkpt>
      <trkpt lat="45.28719" lon="14.2035">
        <ele>1359.44</ele>
        <time>2016-06-06T10:20:53Z</time>
      </trkpt>
      <trkpt lat="45.28708" lon="14.20338">
        <ele>1359.92</ele>
        <time>2016-06-06T10:21:05Z</time>
      </trkpt>
      <trkpt lat="45.28696" lon="14.20325">
        <ele>1361.36</ele>
        <time>2016-06-06T10:21:16Z</time>
      </trkpt>
      <trkpt lat="45.2869" lon="14.20318">
        <ele>1362.33</ele>
        <time>2016-06-06T10:21:29Z</time>
      </trkpt>
      <trkpt lat="45.28679" lon="14.20312">
        <ele>1362.81</ele>
        <time>2016-06-06T10:21:40Z</time>
      </trkpt>
      <trkpt lat="45.28669" lon="14.20303">
        <ele>1364.25</ele>
        <time>2016-06-06T10:21:52Z</time>
      </trkpt>
      <trkpt lat="45.28665" lon="14.203">
        <ele>1364.73</ele>
        <time>2016-06-06T10:22:05Z</time>
      </trkpt>
      <trkpt lat="45.28662" lon="14.20299">
        <ele>1365.69</ele>
        <time>2016-06-06T10:22:07Z</time>
      </trkpt>
      <trkpt lat="45.28645" lon="14.20275">
        <ele>1366.65</ele>
        <time>2016-06-06T10:22:21Z</time>
      </trkpt>
      <trkpt lat="45.28637" lon="14.20248">
        <ele>1368.57</ele>
        <time>2016-06-06T10:22:35Z</time>
      </trkpt>
      <trkpt lat="45.28628" lon="14.20235">
        <ele>1370.98</ele>
        <time>2016-06-06T10:22:48Z</time>
      </trkpt>
      <trkpt lat="45.28621" lon="14.2023">
        <ele>1371.94</ele>
        <time>2016-06-06T10:23:00Z</time>
      </trkpt>
      <trkpt lat="45.28613" lon="14.20226">
        <ele>1373.86</ele>
        <time>2016-06-06T10:23:13Z</time>
      </trkpt>
      <trkpt lat="45.28603" lon="14.20223">
        <ele>1374.34</ele>
        <time>2016-06-06T10:23:25Z</time>
      </trkpt>
      <trkpt lat="45.28596" lon="14.2022">
        <ele>1376.26</ele>
        <time>2016-06-06T10:23:36Z</time>
      </trkpt>
      <trkpt lat="45.28586" lon="14.20215">
        <ele>1377.23</ele>
        <time>2016-06-06T10:23:50Z</time>
      </trkpt>
      <trkpt lat="45.2858" lon="14.20213">
        <ele>1378.67</ele>
        <time>2016-06-06T10:23:57Z</time>
      </trkpt>
      <trkpt lat="45.2857" lon="14.2021">
        <ele>1379.15</ele>
        <time>2016-06-06T10:24:10Z</time>
      </trkpt>
      <trkpt lat="45.28562" lon="14.20208">
        <ele>1380.59</ele>
        <time>2016-06-06T10:24:21Z</time>
      </trkpt>
      <trkpt lat="45.28555" lon="14.20204">
        <ele>1381.07</ele>
        <time>2016-06-06T10:24:32Z</time>
      </trkpt>
      <trkpt lat="45.2855" lon="14.20202">
        <ele>1382.03</ele>
        <time>2016-06-06T10:24:38Z</time>
      </trkpt>
      <trkpt lat="45.28541" lon="14.202">
        <ele>1382.51</ele>
        <time>2016-06-06T10:24:50Z</time>
      </trkpt>
      <trkpt lat="45.28539" lon="14.20199">
        <ele>1383.47</ele>
        <time>2016-06-06T10:24:53Z</time>
      </trkpt>
      <trkpt lat="45.28529" lon="14.202">
        <ele>1383.47</ele>
        <time>2016-06-06T10:25:05Z</time>
      </trkpt>
      <trkpt lat="45.28522" lon="14.20202">
        <ele>1384.44</ele>
        <time>2016-06-06T10:25:18Z</time>
      </trkpt>
      <trkpt lat="45.28519" lon="14.20204">
        <ele>1383.96</ele>
        <time>2016-06-06T10:25:37Z</time>
      </trkpt>
      <trkpt lat="45.28517" lon="14.20203">
        <ele>1383.96</ele>
        <time>2016-06-06T10:25:57Z</time>
      </trkpt>
      <trkpt lat="45.28507" lon="14.20205">
        <ele>1384.44</ele>
        <time>2016-06-06T10:26:10Z</time>
      </trkpt>
      <trkpt lat="45.28502" lon="14.20205">
        <ele>1384.92</ele>
        <time>2016-06-06T10:26:23Z</time>
      </trkpt>
      <trkpt lat="45.28502" lon="14.20205">
        <ele>1386.84</ele>
        <time>2016-06-06T10:26:51Z</time>
      </trkpt>
      <trkpt lat="45.28499" lon="14.202">
        <ele>1387.8</ele>
        <time>2016-06-06T10:27:03Z</time>
      </trkpt>
      <trkpt lat="45.28498" lon="14.202">
        <ele>1389.24</ele>
        <time>2016-06-06T10:27:21Z</time>
      </trkpt>
      <trkpt lat="45.28498" lon="14.202">
        <ele>1391.65</ele>
        <time>2016-06-06T10:27:42Z</time>
      </trkpt>
      <trkpt lat="45.28496" lon="14.20201">
        <ele>1391.65</ele>
        <time>2016-06-06T10:28:11Z</time>
      </trkpt>
      <trkpt lat="45.28496" lon="14.20199">
        <ele>1392.13</ele>
        <time>2016-06-06T10:28:41Z</time>
      </trkpt>
      <trkpt lat="45.28496" lon="14.20198">
        <ele>1392.13</ele>
        <time>2016-06-06T10:28:59Z</time>
      </trkpt>
      <trkpt lat="45.28496" lon="14.20199">
        <ele>1391.65</ele>
        <time>2016-06-06T10:29:26Z</time>
      </trkpt>
      <trkpt lat="45.28494" lon="14.20197">
        <ele>1392.13</ele>
        <time>2016-06-06T10:29:43Z</time>
      </trkpt>
      <trkpt lat="45.28492" lon="14.20196">
        <ele>1391.65</ele>
        <time>2016-06-06T10:30:16Z</time>
      </trkpt>
      <trkpt lat="45.28493" lon="14.20197">
        <ele>1392.61</ele>
        <time>2016-06-06T10:31:03Z</time>
      </trkpt>
      <trkpt lat="45.28493" lon="14.20198">
        <ele>1392.61</ele>
        <time>2016-06-06T10:31:45Z</time>
      </trkpt>
      <trkpt lat="45.28491" lon="14.20198">
        <ele>1392.13</ele>
        <time>2016-06-06T10:31:58Z</time>
      </trkpt>
      <trkpt lat="45.28493" lon="14.20199">
        <ele>1389.24</ele>
        <time>2016-06-06T10:32:02Z</time>
      </trkpt>
      <trkpt lat="45.28499" lon="14.20198">
        <ele>1387.32</ele>
        <time>2016-06-06T10:32:16Z</time>
      </trkpt>
      <trkpt lat="45.28499" lon="14.20197">
        <ele>1386.36</ele>
        <time>2016-06-06T10:32:27Z</time>
      </trkpt>
      <trkpt lat="45.285" lon="14.20201">
        <ele>1385.4</ele>
        <time>2016-06-06T10:32:35Z</time>
      </trkpt>
      <trkpt lat="45.28497" lon="14.20205">
        <ele>1384.92</ele>
        <time>2016-06-06T10:32:47Z</time>
      </trkpt>
      <trkpt lat="45.28496" lon="14.20205">
        <ele>1384.92</ele>
        <time>2016-06-06T10:33:10Z</time>
      </trkpt>
      <trkpt lat="45.28496" lon="14.20205">
        <ele>1384.92</ele>
        <time>2016-06-06T10:33:46Z</time>
      </trkpt>
      <trkpt lat="45.28497" lon="14.20207">
        <ele>1384.92</ele>
        <time>2016-06-06T10:44:29Z</time>
      </trkpt>
      <trkpt lat="45.28498" lon="14.20207">
        <ele>1384.44</ele>
        <time>2016-06-06T10:49:08Z</time>
      </trkpt>
      <trkpt lat="45.28497" lon="14.20206">
        <ele>1385.4</ele>
        <time>2016-06-06T10:52:09Z</time>
      </trkpt>
      <trkpt lat="45.28497" lon="14.20206">
        <ele>1384.92</ele>
        <time>2016-06-06T10:55:20Z</time>
      </trkpt>
      <trkpt lat="45.28498" lon="14.20206">
        <ele>1387.8</ele>
        <time>2016-06-06T11:07:42Z</time>
      </trkpt>
      <trkpt lat="45.28497" lon="14.20206">
        <ele>1388.28</ele>
        <time>2016-06-06T11:09:55Z</time>
      </trkpt>
      <trkpt lat="45.28498" lon="14.20207">
        <ele>1388.76</ele>
        <time>2016-06-06T11:10:23Z</time>
      </trkpt>
      <trkpt lat="45.28498" lon="14.20208">
        <ele>1388.28</ele>
        <time>2016-06-06T11:10:41Z</time>
      </trkpt>
      <trkpt lat="45.28505" lon="14.20207">
        <ele>1388.76</ele>
        <time>2016-06-06T11:10:53Z</time>
      </trkpt>
      <trkpt lat="45.28505" lon="14.20207">
        <ele>1388.76</ele>
        <time>2016-06-06T11:11:11Z</time>
      </trkpt>
      <trkpt lat="45.28499" lon="14.20208">
        <ele>1388.28</ele>
        <time>2016-06-06T11:12:52Z</time>
      </trkpt>
      <trkpt lat="45.28492" lon="14.20204">
        <ele>1389.24</ele>
        <time>2016-06-06T11:13:03Z</time>
      </trkpt>
      <trkpt lat="45.28489" lon="14.20203">
        <ele>1389.24</ele>
        <time>2016-06-06T11:13:17Z</time>
      </trkpt>
      <trkpt lat="45.28488" lon="14.20203">
        <ele>1389.72</ele>
        <time>2016-06-06T11:13:18Z</time>
      </trkpt>
      <trkpt lat="45.28479" lon="14.20202">
        <ele>1388.76</ele>
        <time>2016-06-06T11:13:32Z</time>
      </trkpt>
      <trkpt lat="45.28475" lon="14.202">
        <ele>1390.2</ele>
        <time>2016-06-06T11:13:46Z</time>
      </trkpt>
      <trkpt lat="45.28475" lon="14.202">
        <ele>1389.72</ele>
        <time>2016-06-06T11:13:48Z</time>
      </trkpt>
      <trkpt lat="45.28471" lon="14.20202">
        <ele>1388.76</ele>
        <time>2016-06-06T11:13:52Z</time>
      </trkpt>
      <trkpt lat="45.28466" lon="14.20203">
        <ele>1388.76</ele>
        <time>2016-06-06T11:13:58Z</time>
      </trkpt>
      <trkpt lat="45.28454" lon="14.20204">
        <ele>1387.8</ele>
        <time>2016-06-06T11:14:11Z</time>
      </trkpt>
      <trkpt lat="45.28453" lon="14.20203">
        <ele>1388.28</ele>
        <time>2016-06-06T11:14:12Z</time>
      </trkpt>
      <trkpt lat="45.28449" lon="14.20205">
        <ele>1387.8</ele>
        <time>2016-06-06T11:14:16Z</time>
      </trkpt>
      <trkpt lat="45.28443" lon="14.20203">
        <ele>1388.76</ele>
        <time>2016-06-06T11:14:28Z</time>
      </trkpt>
      <trkpt lat="45.28442" lon="14.20204">
        <ele>1387.32</ele>
        <time>2016-06-06T11:14:39Z</time>
      </trkpt>
      <trkpt lat="45.28439" lon="14.20205">
        <ele>1387.32</ele>
        <time>2016-06-06T11:14:42Z</time>
      </trkpt>
      <trkpt lat="45.28427" lon="14.20205">
        <ele>1387.32</ele>
        <time>2016-06-06T11:14:55Z</time>
      </trkpt>
      <trkpt lat="45.28419" lon="14.20203">
        <ele>1385.88</ele>
        <time>2016-06-06T11:15:06Z</time>
      </trkpt>
      <trkpt lat="45.28415" lon="14.20201">
        <ele>1385.4</ele>
        <time>2016-06-06T11:15:20Z</time>
      </trkpt>
      <trkpt lat="45.28411" lon="14.20198">
        <ele>1385.4</ele>
        <time>2016-06-06T11:15:36Z</time>
      </trkpt>
      <trkpt lat="45.28405" lon="14.20197">
        <ele>1385.4</ele>
        <time>2016-06-06T11:15:46Z</time>
      </trkpt>
      <trkpt lat="45.28404" lon="14.20197">
        <ele>1385.88</ele>
        <time>2016-06-06T11:15:47Z</time>
      </trkpt>
      <trkpt lat="45.28397" lon="14.20196">
        <ele>1385.4</ele>
        <time>2016-06-06T11:15:58Z</time>
      </trkpt>
      <trkpt lat="45.2839" lon="14.20196">
        <ele>1385.4</ele>
        <time>2016-06-06T11:16:09Z</time>
      </trkpt>
      <trkpt lat="45.28384" lon="14.20194">
        <ele>1383.96</ele>
        <time>2016-06-06T11:16:18Z</time>
      </trkpt>
      <trkpt lat="45.28372" lon="14.20194">
        <ele>1382.99</ele>
        <time>2016-06-06T11:16:30Z</time>
      </trkpt>
      <trkpt lat="45.28369" lon="14.20191">
        <ele>1382.03</ele>
        <time>2016-06-06T11:16:35Z</time>
      </trkpt>
      <trkpt lat="45.28358" lon="14.2019">
        <ele>1381.55</ele>
        <time>2016-06-06T11:16:48Z</time>
      </trkpt>
      <trkpt lat="45.28351" lon="14.20188">
        <ele>1380.11</ele>
        <time>2016-06-06T11:17:00Z</time>
      </trkpt>
      <trkpt lat="45.28345" lon="14.20189">
        <ele>1379.63</ele>
        <time>2016-06-06T11:17:10Z</time>
      </trkpt>
      <trkpt lat="45.28337" lon="14.20187">
        <ele>1377.23</ele>
        <time>2016-06-06T11:17:25Z</time>
      </trkpt>
      <trkpt lat="45.28335" lon="14.20186">
        <ele>1376.26</ele>
        <time>2016-06-06T11:17:29Z</time>
      </trkpt>
      <trkpt lat="45.28328" lon="14.20183">
        <ele>1373.38</ele>
        <time>2016-06-06T11:17:42Z</time>
      </trkpt>
      <trkpt lat="45.28326" lon="14.20183">
        <ele>1371.94</ele>
        <time>2016-06-06T11:17:54Z</time>
      </trkpt>
      <trkpt lat="45.28324" lon="14.20181">
        <ele>1369.54</ele>
        <time>2016-06-06T11:18:07Z</time>
      </trkpt>
      <trkpt lat="45.28324" lon="14.20181">
        <ele>1370.02</ele>
        <time>2016-06-06T11:18:08Z</time>
      </trkpt>
      <trkpt lat="45.28324" lon="14.20181">
        <ele>1368.57</ele>
        <time>2016-06-06T11:18:23Z</time>
      </trkpt>
      <trkpt lat="45.28324" lon="14.20181">
        <ele>1367.13</ele>
        <time>2016-06-06T11:18:34Z</time>
      </trkpt>
      <trkpt lat="45.28321" lon="14.2018">
        <ele>1365.21</ele>
        <time>2016-06-06T11:18:47Z</time>
      </trkpt>
      <trkpt lat="45.28319" lon="14.20179">
        <ele>1362.81</ele>
        <time>2016-06-06T11:19:02Z</time>
      </trkpt>
      <trkpt lat="45.2831" lon="14.20167">
        <ele>1360.4</ele>
        <time>2016-06-06T11:19:16Z</time>
      </trkpt>
      <trkpt lat="45.28296" lon="14.20158">
        <ele>1358</ele>
        <time>2016-06-06T11:19:29Z</time>
      </trkpt>
      <trkpt lat="45.28294" lon="14.20157">
        <ele>1356.08</ele>
        <time>2016-06-06T11:19:44Z</time>
      </trkpt>
      <trkpt lat="45.28294" lon="14.20157">
        <ele>1355.12</ele>
        <time>2016-06-06T11:19:47Z</time>
      </trkpt>
      <trkpt lat="45.28285" lon="14.20153">
        <ele>1352.23</ele>
        <time>2016-06-06T11:20:00Z</time>
      </trkpt>
      <trkpt lat="45.28284" lon="14.20153">
        <ele>1351.75</ele>
        <time>2016-06-06T11:20:02Z</time>
      </trkpt>
      <trkpt lat="45.2828" lon="14.20155">
        <ele>1350.79</ele>
        <time>2016-06-06T11:20:13Z</time>
      </trkpt>
      <trkpt lat="45.2828" lon="14.20155">
        <ele>1351.75</ele>
        <time>2016-06-06T11:20:26Z</time>
      </trkpt>
      <trkpt lat="45.28279" lon="14.20158">
        <ele>1350.31</ele>
        <time>2016-06-06T11:20:58Z</time>
      </trkpt>
      <trkpt lat="45.28272" lon="14.20157">
        <ele>1346.94</ele>
        <time>2016-06-06T11:21:09Z</time>
      </trkpt>
      <trkpt lat="45.28267" lon="14.20158">
        <ele>1344.06</ele>
        <time>2016-06-06T11:21:23Z</time>
      </trkpt>
      <trkpt lat="45.28259" lon="14.20158">
        <ele>1342.62</ele>
        <time>2016-06-06T11:21:32Z</time>
      </trkpt>
      <trkpt lat="45.28252" lon="14.20161">
        <ele>1339.25</ele>
        <time>2016-06-06T11:21:45Z</time>
      </trkpt>
      <trkpt lat="45.28249" lon="14.2016">
        <ele>1338.29</ele>
        <time>2016-06-06T11:21:57Z</time>
      </trkpt>
      <trkpt lat="45.28249" lon="14.2016">
        <ele>1336.37</ele>
        <time>2016-06-06T11:22:05Z</time>
      </trkpt>
      <trkpt lat="45.28249" lon="14.2016">
        <ele>1335.41</ele>
        <time>2016-06-06T11:22:11Z</time>
      </trkpt>
      <trkpt lat="45.28249" lon="14.2016">
        <ele>1334.93</ele>
        <time>2016-06-06T11:22:16Z</time>
      </trkpt>
      <trkpt lat="45.28232" lon="14.2016">
        <ele>1331.56</ele>
        <time>2016-06-06T11:22:29Z</time>
      </trkpt>
      <trkpt lat="45.28231" lon="14.2016">
        <ele>1329.64</ele>
        <time>2016-06-06T11:22:41Z</time>
      </trkpt>
      <trkpt lat="45.28228" lon="14.2016">
        <ele>1328.68</ele>
        <time>2016-06-06T11:22:53Z</time>
      </trkpt>
      <trkpt lat="45.28217" lon="14.20158">
        <ele>1326.76</ele>
        <time>2016-06-06T11:23:04Z</time>
      </trkpt>
      <trkpt lat="45.28215" lon="14.20158">
        <ele>1325.31</ele>
        <time>2016-06-06T11:23:23Z</time>
      </trkpt>
      <trkpt lat="45.28203" lon="14.20155">
        <ele>1323.87</ele>
        <time>2016-06-06T11:23:36Z</time>
      </trkpt>
      <trkpt lat="45.28199" lon="14.20154">
        <ele>1322.91</ele>
        <time>2016-06-06T11:23:49Z</time>
      </trkpt>
      <trkpt lat="45.28199" lon="14.20154">
        <ele>1320.99</ele>
        <time>2016-06-06T11:24:02Z</time>
      </trkpt>
      <trkpt lat="45.28199" lon="14.20154">
        <ele>1319.07</ele>
        <time>2016-06-06T11:24:14Z</time>
      </trkpt>
      <trkpt lat="45.28199" lon="14.20154">
        <ele>1317.14</ele>
        <time>2016-06-06T11:24:24Z</time>
      </trkpt>
      <trkpt lat="45.28197" lon="14.20154">
        <ele>1315.7</ele>
        <time>2016-06-06T11:24:40Z</time>
      </trkpt>
      <trkpt lat="45.28187" lon="14.20154">
        <ele>1312.82</ele>
        <time>2016-06-06T11:24:53Z</time>
      </trkpt>
      <trkpt lat="45.28187" lon="14.20154">
        <ele>1309.93</ele>
        <time>2016-06-06T11:25:06Z</time>
      </trkpt>
      <trkpt lat="45.28187" lon="14.20154">
        <ele>1309.45</ele>
        <time>2016-06-06T11:25:07Z</time>
      </trkpt>
      <trkpt lat="45.28187" lon="14.20154">
        <ele>1308.01</ele>
        <time>2016-06-06T11:25:22Z</time>
      </trkpt>
      <trkpt lat="45.28184" lon="14.20155">
        <ele>1305.61</ele>
        <time>2016-06-06T11:25:35Z</time>
      </trkpt>
      <trkpt lat="45.28183" lon="14.20155">
        <ele>1303.69</ele>
        <time>2016-06-06T11:25:47Z</time>
      </trkpt>
      <trkpt lat="45.28177" lon="14.20157">
        <ele>1302.24</ele>
        <time>2016-06-06T11:26:00Z</time>
      </trkpt>
      <trkpt lat="45.28177" lon="14.20157">
        <ele>1300.8</ele>
        <time>2016-06-06T11:26:11Z</time>
      </trkpt>
      <trkpt lat="45.28177" lon="14.20157">
        <ele>1299.84</ele>
        <time>2016-06-06T11:26:25Z</time>
      </trkpt>
      <trkpt lat="45.28174" lon="14.20157">
        <ele>1297.44</ele>
        <time>2016-06-06T11:26:46Z</time>
      </trkpt>
      <trkpt lat="45.28168" lon="14.20159">
        <ele>1296.48</ele>
        <time>2016-06-06T11:26:55Z</time>
      </trkpt>
      <trkpt lat="45.28149" lon="14.20158">
        <ele>1295.03</ele>
        <time>2016-06-06T11:27:10Z</time>
      </trkpt>
      <trkpt lat="45.28135" lon="14.20156">
        <ele>1293.59</ele>
        <time>2016-06-06T11:27:22Z</time>
      </trkpt>
      <trkpt lat="45.2813" lon="14.20155">
        <ele>1291.67</ele>
        <time>2016-06-06T11:27:35Z</time>
      </trkpt>
      <trkpt lat="45.28126" lon="14.20156">
        <ele>1289.75</ele>
        <time>2016-06-06T11:27:46Z</time>
      </trkpt>
      <trkpt lat="45.28122" lon="14.20157">
        <ele>1288.3</ele>
        <time>2016-06-06T11:27:58Z</time>
      </trkpt>
      <trkpt lat="45.28116" lon="14.20158">
        <ele>1286.86</ele>
        <time>2016-06-06T11:28:11Z</time>
      </trkpt>
      <trkpt lat="45.28115" lon="14.20163">
        <ele>1285.42</ele>
        <time>2016-06-06T11:28:25Z</time>
      </trkpt>
      <trkpt lat="45.28111" lon="14.20164">
        <ele>1283.02</ele>
        <time>2016-06-06T11:28:36Z</time>
      </trkpt>
      <trkpt lat="45.28108" lon="14.20165">
        <ele>1281.09</ele>
        <time>2016-06-06T11:28:47Z</time>
      </trkpt>
      <trkpt lat="45.28104" lon="14.20165">
        <ele>1280.13</ele>
        <time>2016-06-06T11:28:59Z</time>
      </trkpt>
      <trkpt lat="45.28101" lon="14.20169">
        <ele>1278.21</ele>
        <time>2016-06-06T11:29:11Z</time>
      </trkpt>
      <trkpt lat="45.28101" lon="14.20169">
        <ele>1278.69</ele>
        <time>2016-06-06T11:29:13Z</time>
      </trkpt>
      <trkpt lat="45.28095" lon="14.20168">
        <ele>1276.29</ele>
        <time>2016-06-06T11:29:25Z</time>
      </trkpt>
      <trkpt lat="45.28093" lon="14.2017">
        <ele>1274.85</ele>
        <time>2016-06-06T11:29:31Z</time>
      </trkpt>
      <trkpt lat="45.28091" lon="14.20173">
        <ele>1272.92</ele>
        <time>2016-06-06T11:29:44Z</time>
      </trkpt>
      <trkpt lat="45.28086" lon="14.20175">
        <ele>1271</ele>
        <time>2016-06-06T11:29:55Z</time>
      </trkpt>
      <trkpt lat="45.28079" lon="14.20174">
        <ele>1268.12</ele>
        <time>2016-06-06T11:30:08Z</time>
      </trkpt>
      <trkpt lat="45.28071" lon="14.20178">
        <ele>1265.71</ele>
        <time>2016-06-06T11:30:21Z</time>
      </trkpt>
      <trkpt lat="45.28065" lon="14.20178">
        <ele>1263.79</ele>
        <time>2016-06-06T11:30:35Z</time>
      </trkpt>
      <trkpt lat="45.28063" lon="14.20178">
        <ele>1263.79</ele>
        <time>2016-06-06T11:30:52Z</time>
      </trkpt>
      <trkpt lat="45.28055" lon="14.20178">
        <ele>1261.87</ele>
        <time>2016-06-06T11:31:18Z</time>
      </trkpt>
      <trkpt lat="45.28044" lon="14.20178">
        <ele>1260.43</ele>
        <time>2016-06-06T11:31:29Z</time>
      </trkpt>
      <trkpt lat="45.28034" lon="14.20186">
        <ele>1258.5</ele>
        <time>2016-06-06T11:31:42Z</time>
      </trkpt>
      <trkpt lat="45.28028" lon="14.20188">
        <ele>1257.06</ele>
        <time>2016-06-06T11:31:49Z</time>
      </trkpt>
      <trkpt lat="45.28027" lon="14.2019">
        <ele>1256.58</ele>
        <time>2016-06-06T11:31:51Z</time>
      </trkpt>
      <trkpt lat="45.28022" lon="14.20196">
        <ele>1256.1</ele>
        <time>2016-06-06T11:31:58Z</time>
      </trkpt>
      <trkpt lat="45.28012" lon="14.20205">
        <ele>1256.1</ele>
        <time>2016-06-06T11:32:11Z</time>
      </trkpt>
      <trkpt lat="45.28003" lon="14.20206">
        <ele>1256.1</ele>
        <time>2016-06-06T11:32:19Z</time>
      </trkpt>
      <trkpt lat="45.27993" lon="14.20215">
        <ele>1257.54</ele>
        <time>2016-06-06T11:32:33Z</time>
      </trkpt>
      <trkpt lat="45.27993" lon="14.20219">
        <ele>1258.02</ele>
        <time>2016-06-06T11:32:47Z</time>
      </trkpt>
      <trkpt lat="45.27994" lon="14.20216">
        <ele>1258.5</ele>
        <time>2016-06-06T11:33:52Z</time>
      </trkpt>
      <trkpt lat="45.27996" lon="14.20215">
        <ele>1257.54</ele>
        <time>2016-06-06T11:33:54Z</time>
      </trkpt>
      <trkpt lat="45.28006" lon="14.20208">
        <ele>1255.62</ele>
        <time>2016-06-06T11:34:07Z</time>
      </trkpt>
      <trkpt lat="45.28009" lon="14.2021">
        <ele>1256.1</ele>
        <time>2016-06-06T11:34:20Z</time>
      </trkpt>
      <trkpt lat="45.28011" lon="14.20207">
        <ele>1256.1</ele>
        <time>2016-06-06T11:34:32Z</time>
      </trkpt>
      <trkpt lat="45.28011" lon="14.20208">
        <ele>1256.1</ele>
        <time>2016-06-06T11:35:21Z</time>
      </trkpt>
      <trkpt lat="45.28016" lon="14.20209">
        <ele>1255.14</ele>
        <time>2016-06-06T11:36:16Z</time>
      </trkpt>
      <trkpt lat="45.28023" lon="14.20212">
        <ele>1256.1</ele>
        <time>2016-06-06T11:36:24Z</time>
      </trkpt>
      <trkpt lat="45.28029" lon="14.20215">
        <ele>1256.1</ele>
        <time>2016-06-06T11:36:32Z</time>
      </trkpt>
      <trkpt lat="45.2804" lon="14.20219">
        <ele>1254.66</ele>
        <time>2016-06-06T11:36:45Z</time>
      </trkpt>
      <trkpt lat="45.2805" lon="14.20224">
        <ele>1253.7</ele>
        <time>2016-06-06T11:36:59Z</time>
      </trkpt>
      <trkpt lat="45.28058" lon="14.20231">
        <ele>1252.74</ele>
        <time>2016-06-06T11:37:13Z</time>
      </trkpt>
      <trkpt lat="45.28062" lon="14.20235">
        <ele>1251.77</ele>
        <time>2016-06-06T11:37:20Z</time>
      </trkpt>
      <trkpt lat="45.28073" lon="14.2025">
        <ele>1249.85</ele>
        <time>2016-06-06T11:37:35Z</time>
      </trkpt>
      <trkpt lat="45.28085" lon="14.20267">
        <ele>1247.93</ele>
        <time>2016-06-06T11:37:50Z</time>
      </trkpt>
      <trkpt lat="45.28096" lon="14.2028">
        <ele>1245.04</ele>
        <time>2016-06-06T11:38:05Z</time>
      </trkpt>
      <trkpt lat="45.28102" lon="14.20289">
        <ele>1244.08</ele>
        <time>2016-06-06T11:38:16Z</time>
      </trkpt>
      <trkpt lat="45.28105" lon="14.20302">
        <ele>1241.68</ele>
        <time>2016-06-06T11:38:30Z</time>
      </trkpt>
      <trkpt lat="45.28108" lon="14.20315">
        <ele>1239.28</ele>
        <time>2016-06-06T11:38:43Z</time>
      </trkpt>
      <trkpt lat="45.28115" lon="14.20332">
        <ele>1236.87</ele>
        <time>2016-06-06T11:38:58Z</time>
      </trkpt>
      <trkpt lat="45.28117" lon="14.20345">
        <ele>1234.95</ele>
        <time>2016-06-06T11:39:13Z</time>
      </trkpt>
      <trkpt lat="45.28123" lon="14.20358">
        <ele>1233.03</ele>
        <time>2016-06-06T11:39:27Z</time>
      </trkpt>
      <trkpt lat="45.2813" lon="14.20374">
        <ele>1231.11</ele>
        <time>2016-06-06T11:39:41Z</time>
      </trkpt>
      <trkpt lat="45.28135" lon="14.20386">
        <ele>1229.18</ele>
        <time>2016-06-06T11:39:56Z</time>
      </trkpt>
      <trkpt lat="45.28142" lon="14.20406">
        <ele>1226.78</ele>
        <time>2016-06-06T11:40:11Z</time>
      </trkpt>
      <trkpt lat="45.28146" lon="14.20421">
        <ele>1225.34</ele>
        <time>2016-06-06T11:40:25Z</time>
      </trkpt>
      <trkpt lat="45.28152" lon="14.20437">
        <ele>1223.42</ele>
        <time>2016-06-06T11:40:38Z</time>
      </trkpt>
      <trkpt lat="45.28158" lon="14.20452">
        <ele>1221.49</ele>
        <time>2016-06-06T11:40:52Z</time>
      </trkpt>
      <trkpt lat="45.28165" lon="14.20466">
        <ele>1220.05</ele>
        <time>2016-06-06T11:41:06Z</time>
      </trkpt>
      <trkpt lat="45.28174" lon="14.20482">
        <ele>1220.05</ele>
        <time>2016-06-06T11:41:19Z</time>
      </trkpt>
      <trkpt lat="45.28186" lon="14.20502">
        <ele>1219.09</ele>
        <time>2016-06-06T11:41:32Z</time>
      </trkpt>
      <trkpt lat="45.28193" lon="14.20509">
        <ele>1218.61</ele>
        <time>2016-06-06T11:41:45Z</time>
      </trkpt>
      <trkpt lat="45.28197" lon="14.20514">
        <ele>1217.17</ele>
        <time>2016-06-06T11:41:54Z</time>
      </trkpt>
      <trkpt lat="45.28199" lon="14.2052">
        <ele>1216.21</ele>
        <time>2016-06-06T11:42:02Z</time>
      </trkpt>
      <trkpt lat="45.28209" lon="14.20543">
        <ele>1216.21</ele>
        <time>2016-06-06T11:42:14Z</time>
      </trkpt>
      <trkpt lat="45.2821" lon="14.20565">
        <ele>1215.24</ele>
        <time>2016-06-06T11:42:26Z</time>
      </trkpt>
      <trkpt lat="45.28208" lon="14.20578">
        <ele>1215.72</ele>
        <time>2016-06-06T11:42:42Z</time>
      </trkpt>
      <trkpt lat="45.28208" lon="14.20593">
        <ele>1214.76</ele>
        <time>2016-06-06T11:44:58Z</time>
      </trkpt>
      <trkpt lat="45.28209" lon="14.20605">
        <ele>1214.76</ele>
        <time>2016-06-06T11:45:09Z</time>
      </trkpt>
      <trkpt lat="45.28207" lon="14.20616">
        <ele>1214.28</ele>
        <time>2016-06-06T11:45:26Z</time>
      </trkpt>
      <trkpt lat="45.28203" lon="14.20633">
        <ele>1212.84</ele>
        <time>2016-06-06T11:45:39Z</time>
      </trkpt>
      <trkpt lat="45.28199" lon="14.20652">
        <ele>1211.4</ele>
        <time>2016-06-06T11:45:54Z</time>
      </trkpt>
      <trkpt lat="45.28198" lon="14.20673">
        <ele>1210.44</ele>
        <time>2016-06-06T11:46:07Z</time>
      </trkpt>
      <trkpt lat="45.28188" lon="14.20696">
        <ele>1207.55</ele>
        <time>2016-06-06T11:46:24Z</time>
      </trkpt>
      <trkpt lat="45.28186" lon="14.2071">
        <ele>1207.07</ele>
        <time>2016-06-06T11:46:40Z</time>
      </trkpt>
      <trkpt lat="45.28185" lon="14.20723">
        <ele>1205.63</ele>
        <time>2016-06-06T11:46:52Z</time>
      </trkpt>
      <trkpt lat="45.28189" lon="14.20748">
        <ele>1204.67</ele>
        <time>2016-06-06T11:47:09Z</time>
      </trkpt>
      <trkpt lat="45.28196" lon="14.20766">
        <ele>1204.19</ele>
        <time>2016-06-06T11:47:33Z</time>
      </trkpt>
      <trkpt lat="45.28202" lon="14.2078">
        <ele>1203.71</ele>
        <time>2016-06-06T11:47:47Z</time>
      </trkpt>
      <trkpt lat="45.28209" lon="14.20795">
        <ele>1204.67</ele>
        <time>2016-06-06T11:47:59Z</time>
      </trkpt>
      <trkpt lat="45.28214" lon="14.2081">
        <ele>1205.63</ele>
        <time>2016-06-06T11:48:15Z</time>
      </trkpt>
      <trkpt lat="45.2822" lon="14.20826">
        <ele>1206.59</ele>
        <time>2016-06-06T11:48:29Z</time>
      </trkpt>
      <trkpt lat="45.28224" lon="14.20844">
        <ele>1207.55</ele>
        <time>2016-06-06T11:48:43Z</time>
      </trkpt>
      <trkpt lat="45.28224" lon="14.20855">
        <ele>1208.51</ele>
        <time>2016-06-06T11:48:57Z</time>
      </trkpt>
      <trkpt lat="45.28228" lon="14.20881">
        <ele>1210.44</ele>
        <time>2016-06-06T11:49:14Z</time>
      </trkpt>
      <trkpt lat="45.28237" lon="14.20896">
        <ele>1211.88</ele>
        <time>2016-06-06T11:49:28Z</time>
      </trkpt>
      <trkpt lat="45.28248" lon="14.20909">
        <ele>1212.84</ele>
        <time>2016-06-06T11:49:44Z</time>
      </trkpt>
      <trkpt lat="45.28256" lon="14.20921">
        <ele>1214.28</ele>
        <time>2016-06-06T11:49:57Z</time>
      </trkpt>
      <trkpt lat="45.28266" lon="14.20929">
        <ele>1214.76</ele>
        <time>2016-06-06T11:50:09Z</time>
      </trkpt>
      <trkpt lat="45.2827" lon="14.2093">
        <ele>1215.24</ele>
        <time>2016-06-06T11:50:22Z</time>
      </trkpt>
      <trkpt lat="45.28273" lon="14.20936">
        <ele>1214.28</ele>
        <time>2016-06-06T11:50:38Z</time>
      </trkpt>
      <trkpt lat="45.28273" lon="14.20937">
        <ele>1212.36</ele>
        <time>2016-06-06T11:51:00Z</time>
      </trkpt>
      <trkpt lat="45.28273" lon="14.20939">
        <ele>1210.92</ele>
        <time>2016-06-06T11:51:25Z</time>
      </trkpt>
      <trkpt lat="45.28273" lon="14.2094">
        <ele>1211.4</ele>
        <time>2016-06-06T11:52:09Z</time>
      </trkpt>
      <trkpt lat="45.28274" lon="14.2094">
        <ele>1209.48</ele>
        <time>2016-06-06T11:53:09Z</time>
      </trkpt>
      <trkpt lat="45.28273" lon="14.20946">
        <ele>1208.03</ele>
        <time>2016-06-06T11:53:29Z</time>
      </trkpt>
      <trkpt lat="45.28272" lon="14.20948">
        <ele>1206.59</ele>
        <time>2016-06-06T11:53:52Z</time>
      </trkpt>
      <trkpt lat="45.2827" lon="14.20945">
        <ele>1204.19</ele>
        <time>2016-06-06T11:54:12Z</time>
      </trkpt>
      <trkpt lat="45.2827" lon="14.20946">
        <ele>1202.27</ele>
        <time>2016-06-06T11:54:37Z</time>
      </trkpt>
      <trkpt lat="45.28265" lon="14.20954">
        <ele>1199.86</ele>
        <time>2016-06-06T11:54:51Z</time>
      </trkpt>
      <trkpt lat="45.28261" lon="14.20957">
        <ele>1197.94</ele>
        <time>2016-06-06T11:55:04Z</time>
      </trkpt>
      <trkpt lat="45.28261" lon="14.20959">
        <ele>1196.02</ele>
        <time>2016-06-06T11:55:27Z</time>
      </trkpt>
      <trkpt lat="45.2826" lon="14.2096">
        <ele>1193.61</ele>
        <time>2016-06-06T11:55:46Z</time>
      </trkpt>
      <trkpt lat="45.28256" lon="14.20967">
        <ele>1190.25</ele>
        <time>2016-06-06T11:56:03Z</time>
      </trkpt>
      <trkpt lat="45.28256" lon="14.2097">
        <ele>1187.85</ele>
        <time>2016-06-06T11:56:29Z</time>
      </trkpt>
      <trkpt lat="45.28261" lon="14.20981">
        <ele>1185.92</ele>
        <time>2016-06-06T11:56:44Z</time>
      </trkpt>
      <trkpt lat="45.28262" lon="14.20985">
        <ele>1183.04</ele>
        <time>2016-06-06T11:56:58Z</time>
      </trkpt>
      <trkpt lat="45.28259" lon="14.20988">
        <ele>1179.67</ele>
        <time>2016-06-06T11:57:15Z</time>
      </trkpt>
      <trkpt lat="45.28256" lon="14.20998">
        <ele>1176.79</ele>
        <time>2016-06-06T11:57:29Z</time>
      </trkpt>
      <trkpt lat="45.28252" lon="14.21009">
        <ele>1174.39</ele>
        <time>2016-06-06T11:57:44Z</time>
      </trkpt>
      <trkpt lat="45.28252" lon="14.21009">
        <ele>1173.43</ele>
        <time>2016-06-06T11:57:51Z</time>
      </trkpt>
      <trkpt lat="45.28252" lon="14.21012">
        <ele>1170.54</ele>
        <time>2016-06-06T11:58:14Z</time>
      </trkpt>
      <trkpt lat="45.28251" lon="14.21013">
        <ele>1168.14</ele>
        <time>2016-06-06T11:58:32Z</time>
      </trkpt>
      <trkpt lat="45.2825" lon="14.21015">
        <ele>1166.22</ele>
        <time>2016-06-06T11:59:00Z</time>
      </trkpt>
      <trkpt lat="45.28246" lon="14.2103">
        <ele>1164.29</ele>
        <time>2016-06-06T11:59:17Z</time>
      </trkpt>
      <trkpt lat="45.28243" lon="14.2104">
        <ele>1160.93</ele>
        <time>2016-06-06T11:59:33Z</time>
      </trkpt>
      <trkpt lat="45.2824" lon="14.21045">
        <ele>1159.49</ele>
        <time>2016-06-06T11:59:49Z</time>
      </trkpt>
      <trkpt lat="45.28237" lon="14.21053">
        <ele>1156.6</ele>
        <time>2016-06-06T12:00:04Z</time>
      </trkpt>
      <trkpt lat="45.28235" lon="14.21058">
        <ele>1154.2</ele>
        <time>2016-06-06T12:00:26Z</time>
      </trkpt>
      <trkpt lat="45.28237" lon="14.21064">
        <ele>1152.76</ele>
        <time>2016-06-06T12:00:40Z</time>
      </trkpt>
      <trkpt lat="45.28244" lon="14.21071">
        <ele>1149.39</ele>
        <time>2016-06-06T12:00:57Z</time>
      </trkpt>
      <trkpt lat="45.28247" lon="14.21075">
        <ele>1146.51</ele>
        <time>2016-06-06T12:01:14Z</time>
      </trkpt>
      <trkpt lat="45.28249" lon="14.21076">
        <ele>1145.55</ele>
        <time>2016-06-06T12:01:34Z</time>
      </trkpt>
      <trkpt lat="45.28255" lon="14.21077">
        <ele>1143.63</ele>
        <time>2016-06-06T12:01:52Z</time>
      </trkpt>
      <trkpt lat="45.28258" lon="14.21078">
        <ele>1141.7</ele>
        <time>2016-06-06T12:02:01Z</time>
      </trkpt>
      <trkpt lat="45.28263" lon="14.21078">
        <ele>1139.3</ele>
        <time>2016-06-06T12:02:17Z</time>
      </trkpt>
      <trkpt lat="45.28269" lon="14.21089">
        <ele>1136.42</ele>
        <time>2016-06-06T12:02:31Z</time>
      </trkpt>
      <trkpt lat="45.28266" lon="14.21089">
        <ele>1134.49</ele>
        <time>2016-06-06T12:02:53Z</time>
      </trkpt>
      <trkpt lat="45.28263" lon="14.21093">
        <ele>1131.13</ele>
        <time>2016-06-06T12:03:09Z</time>
      </trkpt>
      <trkpt lat="45.28263" lon="14.21093">
        <ele>1131.13</ele>
        <time>2016-06-06T12:03:13Z</time>
      </trkpt>
      <trkpt lat="45.28264" lon="14.21103">
        <ele>1129.21</ele>
        <time>2016-06-06T12:03:27Z</time>
      </trkpt>
      <trkpt lat="45.28266" lon="14.21105">
        <ele>1127.76</ele>
        <time>2016-06-06T12:03:50Z</time>
      </trkpt>
      <trkpt lat="45.28264" lon="14.21107">
        <ele>1124.4</ele>
        <time>2016-06-06T12:04:16Z</time>
      </trkpt>
      <trkpt lat="45.28264" lon="14.21111">
        <ele>1122</ele>
        <time>2016-06-06T12:04:40Z</time>
      </trkpt>
      <trkpt lat="45.28263" lon="14.21113">
        <ele>1119.59</ele>
        <time>2016-06-06T12:04:57Z</time>
      </trkpt>
      <trkpt lat="45.28263" lon="14.21124">
        <ele>1117.19</ele>
        <time>2016-06-06T12:05:20Z</time>
      </trkpt>
      <trkpt lat="45.28258" lon="14.21133">
        <ele>1114.31</ele>
        <time>2016-06-06T12:05:34Z</time>
      </trkpt>
      <trkpt lat="45.28257" lon="14.21135">
        <ele>1113.34</ele>
        <time>2016-06-06T12:05:51Z</time>
      </trkpt>
      <trkpt lat="45.28262" lon="14.21138">
        <ele>1111.9</ele>
        <time>2016-06-06T12:06:11Z</time>
      </trkpt>
      <trkpt lat="45.28267" lon="14.21141">
        <ele>1109.5</ele>
        <time>2016-06-06T12:06:26Z</time>
      </trkpt>
      <trkpt lat="45.28274" lon="14.21147">
        <ele>1108.06</ele>
        <time>2016-06-06T12:06:39Z</time>
      </trkpt>
      <trkpt lat="45.28275" lon="14.21147">
        <ele>1106.13</ele>
        <time>2016-06-06T12:06:56Z</time>
      </trkpt>
      <trkpt lat="45.28275" lon="14.21152">
        <ele>1103.25</ele>
        <time>2016-06-06T12:07:15Z</time>
      </trkpt>
      <trkpt lat="45.28272" lon="14.21157">
        <ele>1101.33</ele>
        <time>2016-06-06T12:07:30Z</time>
      </trkpt>
      <trkpt lat="45.28267" lon="14.2116">
        <ele>1098.44</ele>
        <time>2016-06-06T12:07:45Z</time>
      </trkpt>
      <trkpt lat="45.28261" lon="14.21169">
        <ele>1096.52</ele>
        <time>2016-06-06T12:08:00Z</time>
      </trkpt>
      <trkpt lat="45.2826" lon="14.21174">
        <ele>1095.56</ele>
        <time>2016-06-06T12:08:04Z</time>
      </trkpt>
      <trkpt lat="45.28262" lon="14.21179">
        <ele>1094.12</ele>
        <time>2016-06-06T12:08:20Z</time>
      </trkpt>
      <trkpt lat="45.28256" lon="14.21183">
        <ele>1092.2</ele>
        <time>2016-06-06T12:08:35Z</time>
      </trkpt>
      <trkpt lat="45.28252" lon="14.21195">
        <ele>1090.27</ele>
        <time>2016-06-06T12:08:51Z</time>
      </trkpt>
      <trkpt lat="45.28246" lon="14.21208">
        <ele>1087.87</ele>
        <time>2016-06-06T12:09:05Z</time>
      </trkpt>
      <trkpt lat="45.28242" lon="14.21217">
        <ele>1086.43</ele>
        <time>2016-06-06T12:09:20Z</time>
      </trkpt>
      <trkpt lat="45.2824" lon="14.21219">
        <ele>1085.95</ele>
        <time>2016-06-06T12:09:53Z</time>
      </trkpt>
      <trkpt lat="45.28237" lon="14.21229">
        <ele>1083.54</ele>
        <time>2016-06-06T12:10:06Z</time>
      </trkpt>
      <trkpt lat="45.28235" lon="14.2123">
        <ele>1081.14</ele>
        <time>2016-06-06T12:10:21Z</time>
      </trkpt>
      <trkpt lat="45.28235" lon="14.21232">
        <ele>1078.74</ele>
        <time>2016-06-06T12:10:41Z</time>
      </trkpt>
      <trkpt lat="45.28234" lon="14.21233">
        <ele>1076.81</ele>
        <time>2016-06-06T12:10:57Z</time>
      </trkpt>
      <trkpt lat="45.28234" lon="14.21233">
        <ele>1074.41</ele>
        <time>2016-06-06T12:11:13Z</time>
      </trkpt>
      <trkpt lat="45.28234" lon="14.21233">
        <ele>1073.45</ele>
        <time>2016-06-06T12:11:15Z</time>
      </trkpt>
      <trkpt lat="45.28238" lon="14.21236">
        <ele>1072.97</ele>
        <time>2016-06-06T12:11:31Z</time>
      </trkpt>
      <trkpt lat="45.28238" lon="14.21236">
        <ele>1070.57</ele>
        <time>2016-06-06T12:11:47Z</time>
      </trkpt>
      <trkpt lat="45.28238" lon="14.21237">
        <ele>1068.16</ele>
        <time>2016-06-06T12:12:01Z</time>
      </trkpt>
      <trkpt lat="45.28239" lon="14.21238">
        <ele>1066.24</ele>
        <time>2016-06-06T12:12:15Z</time>
      </trkpt>
      <trkpt lat="45.2824" lon="14.21241">
        <ele>1066.24</ele>
        <time>2016-06-06T12:12:29Z</time>
      </trkpt>
      <trkpt lat="45.2824" lon="14.21241">
        <ele>1065.76</ele>
        <time>2016-06-06T12:12:45Z</time>
      </trkpt>
      <trkpt lat="45.2824" lon="14.21242">
        <ele>1066.24</ele>
        <time>2016-06-06T12:13:33Z</time>
      </trkpt>
      <trkpt lat="45.2824" lon="14.21242">
        <ele>1067.2</ele>
        <time>2016-06-06T12:14:01Z</time>
      </trkpt>
      <trkpt lat="45.2824" lon="14.21244">
        <ele>1067.2</ele>
        <time>2016-06-06T12:14:35Z</time>
      </trkpt>
      <trkpt lat="45.28241" lon="14.21247">
        <ele>1067.68</ele>
        <time>2016-06-06T12:15:46Z</time>
      </trkpt>
      <trkpt lat="45.28241" lon="14.21247">
        <ele>1067.2</ele>
        <time>2016-06-06T12:16:20Z</time>
      </trkpt>
      <trkpt lat="45.28247" lon="14.21251">
        <ele>1068.16</ele>
        <time>2016-06-06T12:18:39Z</time>
      </trkpt>
      <trkpt lat="45.28247" lon="14.21251">
        <ele>1067.68</ele>
        <time>2016-06-06T12:19:01Z</time>
      </trkpt>
      <trkpt lat="45.28249" lon="14.21254">
        <ele>1068.16</ele>
        <time>2016-06-06T12:20:16Z</time>
      </trkpt>
      <trkpt lat="45.2825" lon="14.21259">
        <ele>1069.12</ele>
        <time>2016-06-06T12:22:46Z</time>
      </trkpt>
      <trkpt lat="45.28251" lon="14.2126">
        <ele>1069.12</ele>
        <time>2016-06-06T12:23:30Z</time>
      </trkpt>
      <trkpt lat="45.28251" lon="14.21262">
        <ele>1068.64</ele>
        <time>2016-06-06T12:24:12Z</time>
      </trkpt>
      <trkpt lat="45.28248" lon="14.21266">
        <ele>1069.12</ele>
        <time>2016-06-06T12:24:43Z</time>
      </trkpt>
      <trkpt lat="45.2825" lon="14.21267">
        <ele>1069.6</ele>
        <time>2016-06-06T12:26:21Z</time>
      </trkpt>
      <trkpt lat="45.28254" lon="14.21266">
        <ele>1069.12</ele>
        <time>2016-06-06T12:27:09Z</time>
      </trkpt>
      <trkpt lat="45.28253" lon="14.21267">
        <ele>1069.12</ele>
        <time>2016-06-06T12:27:37Z</time>
      </trkpt>
      <trkpt lat="45.28254" lon="14.21266">
        <ele>1069.6</ele>
        <time>2016-06-06T12:28:33Z</time>
      </trkpt>
      <trkpt lat="45.28257" lon="14.21267">
        <ele>1070.08</ele>
        <time>2016-06-06T12:29:44Z</time>
      </trkpt>
      <trkpt lat="45.28257" lon="14.21267">
        <ele>1069.12</ele>
        <time>2016-06-06T12:30:41Z</time>
      </trkpt>
      <trkpt lat="45.28258" lon="14.21265">
        <ele>1070.57</ele>
        <time>2016-06-06T12:31:36Z</time>
      </trkpt>
      <trkpt lat="45.28258" lon="14.21265">
        <ele>1070.57</ele>
        <time>2016-06-06T12:32:12Z</time>
      </trkpt>
      <trkpt lat="45.28262" lon="14.21289">
        <ele>1069.6</ele>
        <time>2016-06-06T12:33:46Z</time>
      </trkpt>
      <trkpt lat="45.28269" lon="14.21297">
        <ele>1067.68</ele>
        <time>2016-06-06T12:34:01Z</time>
      </trkpt>
      <trkpt lat="45.28271" lon="14.21299">
        <ele>1065.28</ele>
        <time>2016-06-06T12:34:16Z</time>
      </trkpt>
      <trkpt lat="45.28274" lon="14.21302">
        <ele>1062.39</ele>
        <time>2016-06-06T12:34:27Z</time>
      </trkpt>
      <trkpt lat="45.28284" lon="14.21309">
        <ele>1060.95</ele>
        <time>2016-06-06T12:34:41Z</time>
      </trkpt>
      <trkpt lat="45.28291" lon="14.21314">
        <ele>1058.55</ele>
        <time>2016-06-06T12:34:53Z</time>
      </trkpt>
      <trkpt lat="45.28293" lon="14.21321">
        <ele>1055.67</ele>
        <time>2016-06-06T12:35:08Z</time>
      </trkpt>
      <trkpt lat="45.28295" lon="14.21326">
        <ele>1053.74</ele>
        <time>2016-06-06T12:35:19Z</time>
      </trkpt>
      <trkpt lat="45.28297" lon="14.2133">
        <ele>1052.78</ele>
        <time>2016-06-06T12:35:22Z</time>
      </trkpt>
      <trkpt lat="45.28307" lon="14.21341">
        <ele>1049.9</ele>
        <time>2016-06-06T12:35:34Z</time>
      </trkpt>
      <trkpt lat="45.28321" lon="14.21345">
        <ele>1047.49</ele>
        <time>2016-06-06T12:35:49Z</time>
      </trkpt>
      <trkpt lat="45.28326" lon="14.21346">
        <ele>1046.53</ele>
        <time>2016-06-06T12:36:02Z</time>
      </trkpt>
      <trkpt lat="45.28333" lon="14.21358">
        <ele>1045.09</ele>
        <time>2016-06-06T12:36:17Z</time>
      </trkpt>
      <trkpt lat="45.28344" lon="14.21356">
        <ele>1044.13</ele>
        <time>2016-06-06T12:36:30Z</time>
      </trkpt>
      <trkpt lat="45.28344" lon="14.21355">
        <ele>1043.17</ele>
        <time>2016-06-06T12:36:59Z</time>
      </trkpt>
      <trkpt lat="45.28347" lon="14.21361">
        <ele>1040.76</ele>
        <time>2016-06-06T12:37:49Z</time>
      </trkpt>
      <trkpt lat="45.28353" lon="14.2137">
        <ele>1038.84</ele>
        <time>2016-06-06T12:38:02Z</time>
      </trkpt>
      <trkpt lat="45.28354" lon="14.21374">
        <ele>1038.36</ele>
        <time>2016-06-06T12:38:05Z</time>
      </trkpt>
      <trkpt lat="45.28359" lon="14.21383">
        <ele>1036.44</ele>
        <time>2016-06-06T12:38:14Z</time>
      </trkpt>
      <trkpt lat="45.2837" lon="14.21391">
        <ele>1032.59</ele>
        <time>2016-06-06T12:38:29Z</time>
      </trkpt>
      <trkpt lat="45.2837" lon="14.21392">
        <ele>1032.59</ele>
        <time>2016-06-06T12:38:30Z</time>
      </trkpt>
      <trkpt lat="45.2837" lon="14.21398">
        <ele>1031.63</ele>
        <time>2016-06-06T12:38:35Z</time>
      </trkpt>
      <trkpt lat="45.28378" lon="14.21404">
        <ele>1028.75</ele>
        <time>2016-06-06T12:38:51Z</time>
      </trkpt>
      <trkpt lat="45.28381" lon="14.21412">
        <ele>1026.83</ele>
        <time>2016-06-06T12:39:00Z</time>
      </trkpt>
      <trkpt lat="45.28384" lon="14.2142">
        <ele>1024.42</ele>
        <time>2016-06-06T12:39:07Z</time>
      </trkpt>
      <trkpt lat="45.28385" lon="14.21431">
        <ele>1022.5</ele>
        <time>2016-06-06T12:39:15Z</time>
      </trkpt>
      <trkpt lat="45.28388" lon="14.21441">
        <ele>1021.06</ele>
        <time>2016-06-06T12:39:29Z</time>
      </trkpt>
      <trkpt lat="45.28393" lon="14.21452">
        <ele>1018.17</ele>
        <time>2016-06-06T12:39:42Z</time>
      </trkpt>
      <trkpt lat="45.28398" lon="14.21464">
        <ele>1015.29</ele>
        <time>2016-06-06T12:39:55Z</time>
      </trkpt>
      <trkpt lat="45.28407" lon="14.21473">
        <ele>1013.37</ele>
        <time>2016-06-06T12:40:07Z</time>
      </trkpt>
      <trkpt lat="45.28414" lon="14.21485">
        <ele>1009.52</ele>
        <time>2016-06-06T12:40:21Z</time>
      </trkpt>
      <trkpt lat="45.28421" lon="14.21492">
        <ele>1006.64</ele>
        <time>2016-06-06T12:40:35Z</time>
      </trkpt>
      <trkpt lat="45.28427" lon="14.21502">
        <ele>1005.2</ele>
        <time>2016-06-06T12:40:47Z</time>
      </trkpt>
      <trkpt lat="45.28433" lon="14.21511">
        <ele>1002.31</ele>
        <time>2016-06-06T12:41:00Z</time>
      </trkpt>
      <trkpt lat="45.28438" lon="14.21517">
        <ele>1001.83</ele>
        <time>2016-06-06T12:41:13Z</time>
      </trkpt>
      <trkpt lat="45.28438" lon="14.21519">
        <ele>1000.39</ele>
        <time>2016-06-06T12:41:17Z</time>
      </trkpt>
      <trkpt lat="45.28437" lon="14.21519">
        <ele>1000.87</ele>
        <time>2016-06-06T12:41:37Z</time>
      </trkpt>
      <trkpt lat="45.2844" lon="14.21523">
        <ele>998.95</ele>
        <time>2016-06-06T12:42:06Z</time>
      </trkpt>
      <trkpt lat="45.28444" lon="14.2153">
        <ele>997.02</ele>
        <time>2016-06-06T12:42:18Z</time>
      </trkpt>
      <trkpt lat="45.28448" lon="14.2154">
        <ele>995.1</ele>
        <time>2016-06-06T12:42:33Z</time>
      </trkpt>
      <trkpt lat="45.28451" lon="14.21541">
        <ele>993.66</ele>
        <time>2016-06-06T12:42:49Z</time>
      </trkpt>
      <trkpt lat="45.28451" lon="14.21554">
        <ele>991.74</ele>
        <time>2016-06-06T12:43:05Z</time>
      </trkpt>
      <trkpt lat="45.28457" lon="14.21559">
        <ele>989.81</ele>
        <time>2016-06-06T12:43:20Z</time>
      </trkpt>
      <trkpt lat="45.28458" lon="14.21562">
        <ele>987.89</ele>
        <time>2016-06-06T12:43:34Z</time>
      </trkpt>
      <trkpt lat="45.28461" lon="14.21568">
        <ele>985.97</ele>
        <time>2016-06-06T12:43:50Z</time>
      </trkpt>
      <trkpt lat="45.28473" lon="14.21569">
        <ele>984.05</ele>
        <time>2016-06-06T12:44:12Z</time>
      </trkpt>
      <trkpt lat="45.28475" lon="14.21569">
        <ele>981.64</ele>
        <time>2016-06-06T12:44:29Z</time>
      </trkpt>
      <trkpt lat="45.28478" lon="14.21574">
        <ele>979.24</ele>
        <time>2016-06-06T12:44:46Z</time>
      </trkpt>
      <trkpt lat="45.2848" lon="14.21582">
        <ele>978.28</ele>
        <time>2016-06-06T12:44:58Z</time>
      </trkpt>
      <trkpt lat="45.2848" lon="14.21582">
        <ele>975.88</ele>
        <time>2016-06-06T12:45:17Z</time>
      </trkpt>
      <trkpt lat="45.28483" lon="14.21586">
        <ele>974.43</ele>
        <time>2016-06-06T12:45:38Z</time>
      </trkpt>
      <trkpt lat="45.28494" lon="14.21597">
        <ele>972.03</ele>
        <time>2016-06-06T12:45:54Z</time>
      </trkpt>
      <trkpt lat="45.285" lon="14.21607">
        <ele>970.59</ele>
        <time>2016-06-06T12:46:06Z</time>
      </trkpt>
      <trkpt lat="45.28504" lon="14.21609">
        <ele>968.18</ele>
        <time>2016-06-06T12:46:22Z</time>
      </trkpt>
      <trkpt lat="45.28504" lon="14.21611">
        <ele>966.74</ele>
        <time>2016-06-06T12:46:35Z</time>
      </trkpt>
      <trkpt lat="45.28504" lon="14.21611">
        <ele>964.82</ele>
        <time>2016-06-06T12:46:49Z</time>
      </trkpt>
      <trkpt lat="45.28516" lon="14.21625">
        <ele>962.42</ele>
        <time>2016-06-06T12:47:03Z</time>
      </trkpt>
      <trkpt lat="45.28523" lon="14.21633">
        <ele>960.98</ele>
        <time>2016-06-06T12:47:18Z</time>
      </trkpt>
      <trkpt lat="45.28526" lon="14.21637">
        <ele>958.57</ele>
        <time>2016-06-06T12:47:36Z</time>
      </trkpt>
      <trkpt lat="45.28529" lon="14.21644">
        <ele>957.13</ele>
        <time>2016-06-06T12:47:51Z</time>
      </trkpt>
      <trkpt lat="45.28531" lon="14.21653">
        <ele>954.25</ele>
        <time>2016-06-06T12:48:06Z</time>
      </trkpt>
      <trkpt lat="45.28531" lon="14.21663">
        <ele>953.77</ele>
        <time>2016-06-06T12:48:19Z</time>
      </trkpt>
      <trkpt lat="45.28537" lon="14.21674">
        <ele>950.88</ele>
        <time>2016-06-06T12:48:35Z</time>
      </trkpt>
      <trkpt lat="45.28542" lon="14.21678">
        <ele>948</ele>
        <time>2016-06-06T12:48:53Z</time>
      </trkpt>
      <trkpt lat="45.28545" lon="14.21685">
        <ele>946.56</ele>
        <time>2016-06-06T12:48:59Z</time>
      </trkpt>
      <trkpt lat="45.28556" lon="14.21696">
        <ele>945.11</ele>
        <time>2016-06-06T12:49:13Z</time>
      </trkpt>
      <trkpt lat="45.28564" lon="14.21703">
        <ele>944.15</ele>
        <time>2016-06-06T12:49:26Z</time>
      </trkpt>
      <trkpt lat="45.28565" lon="14.21704">
        <ele>944.63</ele>
        <time>2016-06-06T12:49:43Z</time>
      </trkpt>
      <trkpt lat="45.28568" lon="14.21703">
        <ele>944.63</ele>
        <time>2016-06-06T12:50:26Z</time>
      </trkpt>
      <trkpt lat="45.28568" lon="14.21703">
        <ele>944.15</ele>
        <time>2016-06-06T12:51:29Z</time>
      </trkpt>
      <trkpt lat="45.28576" lon="14.21701">
        <ele>943.67</ele>
        <time>2016-06-06T12:52:23Z</time>
      </trkpt>
      <trkpt lat="45.28581" lon="14.21702">
        <ele>943.67</ele>
        <time>2016-06-06T12:52:38Z</time>
      </trkpt>
      <trkpt lat="45.28586" lon="14.21699">
        <ele>943.19</ele>
        <time>2016-06-06T12:52:49Z</time>
      </trkpt>
      <trkpt lat="45.28585" lon="14.21697">
        <ele>942.23</ele>
        <time>2016-06-06T12:53:17Z</time>
      </trkpt>
      <trkpt lat="45.28592" lon="14.21693">
        <ele>942.23</ele>
        <time>2016-06-06T12:53:37Z</time>
      </trkpt>
      <trkpt lat="45.28594" lon="14.21693">
        <ele>942.23</ele>
        <time>2016-06-06T12:53:53Z</time>
      </trkpt>
      <trkpt lat="45.28602" lon="14.21695">
        <ele>940.79</ele>
        <time>2016-06-06T12:54:05Z</time>
      </trkpt>
      <trkpt lat="45.28608" lon="14.21696">
        <ele>941.27</ele>
        <time>2016-06-06T12:54:19Z</time>
      </trkpt>
      <trkpt lat="45.28612" lon="14.21701">
        <ele>940.31</ele>
        <time>2016-06-06T12:54:36Z</time>
      </trkpt>
      <trkpt lat="45.28613" lon="14.21704">
        <ele>939.35</ele>
        <time>2016-06-06T12:54:50Z</time>
      </trkpt>
      <trkpt lat="45.28618" lon="14.21707">
        <ele>938.86</ele>
        <time>2016-06-06T12:55:04Z</time>
      </trkpt>
      <trkpt lat="45.28619" lon="14.21707">
        <ele>937.9</ele>
        <time>2016-06-06T12:55:16Z</time>
      </trkpt>
      <trkpt lat="45.28636" lon="14.2171">
        <ele>936.94</ele>
        <time>2016-06-06T12:55:28Z</time>
      </trkpt>
      <trkpt lat="45.28651" lon="14.2171">
        <ele>935.02</ele>
        <time>2016-06-06T12:55:41Z</time>
      </trkpt>
      <trkpt lat="45.28659" lon="14.21712">
        <ele>933.1</ele>
        <time>2016-06-06T12:55:55Z</time>
      </trkpt>
      <trkpt lat="45.28673" lon="14.21711">
        <ele>931.65</ele>
        <time>2016-06-06T12:56:14Z</time>
      </trkpt>
      <trkpt lat="45.28689" lon="14.21708">
        <ele>930.69</ele>
        <time>2016-06-06T12:56:27Z</time>
      </trkpt>
      <trkpt lat="45.28695" lon="14.21714">
        <ele>929.25</ele>
        <time>2016-06-06T12:56:38Z</time>
      </trkpt>
      <trkpt lat="45.28698" lon="14.21716">
        <ele>929.25</ele>
        <time>2016-06-06T12:56:43Z</time>
      </trkpt>
      <trkpt lat="45.28706" lon="14.21722">
        <ele>927.33</ele>
        <time>2016-06-06T12:56:56Z</time>
      </trkpt>
      <trkpt lat="45.28719" lon="14.21719">
        <ele>926.85</ele>
        <time>2016-06-06T12:57:10Z</time>
      </trkpt>
      <trkpt lat="45.28729" lon="14.21716">
        <ele>925.89</ele>
        <time>2016-06-06T12:57:20Z</time>
      </trkpt>
      <trkpt lat="45.28732" lon="14.21716">
        <ele>925.89</ele>
        <time>2016-06-06T12:57:22Z</time>
      </trkpt>
      <trkpt lat="45.28741" lon="14.21715">
        <ele>924.93</ele>
        <time>2016-06-06T12:57:36Z</time>
      </trkpt>
      <trkpt lat="45.28745" lon="14.21717">
        <ele>924.45</ele>
        <time>2016-06-06T12:57:43Z</time>
      </trkpt>
      <trkpt lat="45.28759" lon="14.2171">
        <ele>924.45</ele>
        <time>2016-06-06T12:57:54Z</time>
      </trkpt>
      <trkpt lat="45.28766" lon="14.21708">
        <ele>924.93</ele>
        <time>2016-06-06T12:57:58Z</time>
      </trkpt>
      <trkpt lat="45.28772" lon="14.21702">
        <ele>924.93</ele>
        <time>2016-06-06T12:58:02Z</time>
      </trkpt>
      <trkpt lat="45.28785" lon="14.217">
        <ele>924.45</ele>
        <time>2016-06-06T12:58:14Z</time>
      </trkpt>
      <trkpt lat="45.28788" lon="14.21697">
        <ele>924.45</ele>
        <time>2016-06-06T12:58:17Z</time>
      </trkpt>
      <trkpt lat="45.28798" lon="14.21687">
        <ele>924.45</ele>
        <time>2016-06-06T12:58:29Z</time>
      </trkpt>
      <trkpt lat="45.28807" lon="14.21681">
        <ele>924.45</ele>
        <time>2016-06-06T12:58:42Z</time>
      </trkpt>
      <trkpt lat="45.2882" lon="14.21679">
        <ele>925.41</ele>
        <time>2016-06-06T12:58:54Z</time>
      </trkpt>
      <trkpt lat="45.28835" lon="14.21675">
        <ele>924.93</ele>
        <time>2016-06-06T12:59:05Z</time>
      </trkpt>
      <trkpt lat="45.28847" lon="14.21678">
        <ele>923.96</ele>
        <time>2016-06-06T12:59:18Z</time>
      </trkpt>
      <trkpt lat="45.28856" lon="14.21682">
        <ele>923.96</ele>
        <time>2016-06-06T12:59:29Z</time>
      </trkpt>
      <trkpt lat="45.28867" lon="14.21672">
        <ele>924.93</ele>
        <time>2016-06-06T12:59:41Z</time>
      </trkpt>
      <trkpt lat="45.28869" lon="14.21669">
        <ele>925.41</ele>
        <time>2016-06-06T12:59:44Z</time>
      </trkpt>
      <trkpt lat="45.28877" lon="14.21653">
        <ele>926.37</ele>
        <time>2016-06-06T12:59:59Z</time>
      </trkpt>
      <trkpt lat="45.28887" lon="14.21646">
        <ele>927.33</ele>
        <time>2016-06-06T13:00:14Z</time>
      </trkpt>
      <trkpt lat="45.28894" lon="14.21635">
        <ele>928.29</ele>
        <time>2016-06-06T13:00:27Z</time>
      </trkpt>
      <trkpt lat="45.28899" lon="14.21625">
        <ele>929.25</ele>
        <time>2016-06-06T13:00:40Z</time>
      </trkpt>
      <trkpt lat="45.28911" lon="14.21629">
        <ele>926.85</ele>
        <time>2016-06-06T13:00:55Z</time>
      </trkpt>
      <trkpt lat="45.28921" lon="14.21638">
        <ele>924.93</ele>
        <time>2016-06-06T13:01:06Z</time>
      </trkpt>
      <trkpt lat="45.28932" lon="14.21643">
        <ele>923.48</ele>
        <time>2016-06-06T13:01:19Z</time>
      </trkpt>
      <trkpt lat="45.28937" lon="14.2164">
        <ele>922.04</ele>
        <time>2016-06-06T13:01:33Z</time>
      </trkpt>
      <trkpt lat="45.2895" lon="14.21632">
        <ele>919.64</ele>
        <time>2016-06-06T13:01:48Z</time>
      </trkpt>
      <trkpt lat="45.28961" lon="14.21629">
        <ele>918.2</ele>
        <time>2016-06-06T13:02:01Z</time>
      </trkpt>
      <trkpt lat="45.28967" lon="14.21623">
        <ele>916.75</ele>
        <time>2016-06-06T13:02:16Z</time>
      </trkpt>
      <trkpt lat="45.28974" lon="14.21619">
        <ele>915.79</ele>
        <time>2016-06-06T13:02:27Z</time>
      </trkpt>
      <trkpt lat="45.28987" lon="14.21611">
        <ele>912.91</ele>
        <time>2016-06-06T13:02:43Z</time>
      </trkpt>
      <trkpt lat="45.2899" lon="14.21605">
        <ele>910.99</ele>
        <time>2016-06-06T13:02:56Z</time>
      </trkpt>
      <trkpt lat="45.28994" lon="14.21606">
        <ele>908.58</ele>
        <time>2016-06-06T13:03:11Z</time>
      </trkpt>
      <trkpt lat="45.29006" lon="14.21604">
        <ele>906.18</ele>
        <time>2016-06-06T13:03:26Z</time>
      </trkpt>
      <trkpt lat="45.29014" lon="14.21594">
        <ele>902.82</ele>
        <time>2016-06-06T13:03:38Z</time>
      </trkpt>
      <trkpt lat="45.29024" lon="14.21588">
        <ele>902.33</ele>
        <time>2016-06-06T13:03:49Z</time>
      </trkpt>
      <trkpt lat="45.29033" lon="14.21589">
        <ele>902.82</ele>
        <time>2016-06-06T13:04:02Z</time>
      </trkpt>
      <trkpt lat="45.29047" lon="14.21592">
        <ele>903.78</ele>
        <time>2016-06-06T13:04:15Z</time>
      </trkpt>
      <trkpt lat="45.29056" lon="14.21596">
        <ele>901.37</ele>
        <time>2016-06-06T13:04:28Z</time>
      </trkpt>
      <trkpt lat="45.29062" lon="14.216">
        <ele>903.3</ele>
        <time>2016-06-06T13:04:41Z</time>
      </trkpt>
      <trkpt lat="45.2907" lon="14.21601">
        <ele>904.26</ele>
        <time>2016-06-06T13:04:52Z</time>
      </trkpt>
      <trkpt lat="45.29077" lon="14.21604">
        <ele>905.7</ele>
        <time>2016-06-06T13:05:04Z</time>
      </trkpt>
      <trkpt lat="45.29078" lon="14.21605">
        <ele>905.7</ele>
        <time>2016-06-06T13:05:20Z</time>
      </trkpt>
      <trkpt lat="45.29098" lon="14.2161">
        <ele>906.66</ele>
        <time>2016-06-06T13:06:04Z</time>
      </trkpt>
      <trkpt lat="45.29101" lon="14.21612">
        <ele>905.22</ele>
        <time>2016-06-06T13:06:38Z</time>
      </trkpt>
      <trkpt lat="45.29108" lon="14.21613">
        <ele>904.74</ele>
        <time>2016-06-06T13:06:52Z</time>
      </trkpt>
      <trkpt lat="45.29115" lon="14.2161">
        <ele>904.26</ele>
        <time>2016-06-06T13:07:19Z</time>
      </trkpt>
      <trkpt lat="45.29122" lon="14.21616">
        <ele>904.26</ele>
        <time>2016-06-06T13:07:31Z</time>
      </trkpt>
      <trkpt lat="45.2913" lon="14.2162">
        <ele>902.82</ele>
        <time>2016-06-06T13:07:44Z</time>
      </trkpt>
      <trkpt lat="45.29132" lon="14.2162">
        <ele>901.85</ele>
        <time>2016-06-06T13:07:48Z</time>
      </trkpt>
      <trkpt lat="45.29135" lon="14.21622">
        <ele>901.37</ele>
        <time>2016-06-06T13:07:51Z</time>
      </trkpt>
      <trkpt lat="45.29146" lon="14.21633">
        <ele>898.97</ele>
        <time>2016-06-06T13:08:04Z</time>
      </trkpt>
      <trkpt lat="45.29158" lon="14.21637">
        <ele>897.53</ele>
        <time>2016-06-06T13:08:16Z</time>
      </trkpt>
      <trkpt lat="45.29165" lon="14.21642">
        <ele>897.05</ele>
        <time>2016-06-06T13:08:29Z</time>
      </trkpt>
      <trkpt lat="45.29173" lon="14.21634">
        <ele>896.09</ele>
        <time>2016-06-06T13:08:38Z</time>
      </trkpt>
      <trkpt lat="45.29179" lon="14.21627">
        <ele>894.64</ele>
        <time>2016-06-06T13:08:43Z</time>
      </trkpt>
      <trkpt lat="45.29187" lon="14.21618">
        <ele>896.09</ele>
        <time>2016-06-06T13:08:51Z</time>
      </trkpt>
      <trkpt lat="45.29196" lon="14.21609">
        <ele>895.61</ele>
        <time>2016-06-06T13:09:03Z</time>
      </trkpt>
      <trkpt lat="45.29197" lon="14.21608">
        <ele>895.12</ele>
        <time>2016-06-06T13:09:04Z</time>
      </trkpt>
      <trkpt lat="45.29203" lon="14.21604">
        <ele>896.09</ele>
        <time>2016-06-06T13:09:11Z</time>
      </trkpt>
      <trkpt lat="45.29205" lon="14.216">
        <ele>896.09</ele>
        <time>2016-06-06T13:09:15Z</time>
      </trkpt>
      <trkpt lat="45.29212" lon="14.21596">
        <ele>897.05</ele>
        <time>2016-06-06T13:09:25Z</time>
      </trkpt>
      <trkpt lat="45.29216" lon="14.21596">
        <ele>897.05</ele>
        <time>2016-06-06T13:09:39Z</time>
      </trkpt>
      <trkpt lat="45.29222" lon="14.21603">
        <ele>894.64</ele>
        <time>2016-06-06T13:09:53Z</time>
      </trkpt>
      <trkpt lat="45.29241" lon="14.2161">
        <ele>894.16</ele>
        <time>2016-06-06T13:10:07Z</time>
      </trkpt>
      <trkpt lat="45.29249" lon="14.21611">
        <ele>893.68</ele>
        <time>2016-06-06T13:10:23Z</time>
      </trkpt>
      <trkpt lat="45.29253" lon="14.21608">
        <ele>892.72</ele>
        <time>2016-06-06T13:10:38Z</time>
      </trkpt>
      <trkpt lat="45.29261" lon="14.21606">
        <ele>892.24</ele>
        <time>2016-06-06T13:10:47Z</time>
      </trkpt>
      <trkpt lat="45.29271" lon="14.21606">
        <ele>892.24</ele>
        <time>2016-06-06T13:10:53Z</time>
      </trkpt>
      <trkpt lat="45.29288" lon="14.21607">
        <ele>892.24</ele>
        <time>2016-06-06T13:11:03Z</time>
      </trkpt>
      <trkpt lat="45.29302" lon="14.21608">
        <ele>892.72</ele>
        <time>2016-06-06T13:11:14Z</time>
      </trkpt>
      <trkpt lat="45.29312" lon="14.21611">
        <ele>892.24</ele>
        <time>2016-06-06T13:11:24Z</time>
      </trkpt>
      <trkpt lat="45.29316" lon="14.21613">
        <ele>892.24</ele>
        <time>2016-06-06T13:11:27Z</time>
      </trkpt>
      <trkpt lat="45.29321" lon="14.21614">
        <ele>891.76</ele>
        <time>2016-06-06T13:11:31Z</time>
      </trkpt>
      <trkpt lat="45.29332" lon="14.21614">
        <ele>892.24</ele>
        <time>2016-06-06T13:11:42Z</time>
      </trkpt>
      <trkpt lat="45.29342" lon="14.21615">
        <ele>893.68</ele>
        <time>2016-06-06T13:11:54Z</time>
      </trkpt>
      <trkpt lat="45.29345" lon="14.21611">
        <ele>893.2</ele>
        <time>2016-06-06T13:12:06Z</time>
      </trkpt>
      <trkpt lat="45.29347" lon="14.21609">
        <ele>892.72</ele>
        <time>2016-06-06T13:12:27Z</time>
      </trkpt>
      <trkpt lat="45.29359" lon="14.21599">
        <ele>892.72</ele>
        <time>2016-06-06T13:12:43Z</time>
      </trkpt>
      <trkpt lat="45.2937" lon="14.21595">
        <ele>893.68</ele>
        <time>2016-06-06T13:12:56Z</time>
      </trkpt>
      <trkpt lat="45.29375" lon="14.21598">
        <ele>894.16</ele>
        <time>2016-06-06T13:13:09Z</time>
      </trkpt>
      <trkpt lat="45.29384" lon="14.21606">
        <ele>894.16</ele>
        <time>2016-06-06T13:13:22Z</time>
      </trkpt>
      <trkpt lat="45.29385" lon="14.21608">
        <ele>893.2</ele>
        <time>2016-06-06T13:13:37Z</time>
      </trkpt>
      <trkpt lat="45.29389" lon="14.2161">
        <ele>892.24</ele>
        <time>2016-06-06T13:13:58Z</time>
      </trkpt>
      <trkpt lat="45.29406" lon="14.21622">
        <ele>891.28</ele>
        <time>2016-06-06T13:14:11Z</time>
      </trkpt>
      <trkpt lat="45.29413" lon="14.21623">
        <ele>889.84</ele>
        <time>2016-06-06T13:14:22Z</time>
      </trkpt>
      <trkpt lat="45.2942" lon="14.21614">
        <ele>888.88</ele>
        <time>2016-06-06T13:14:35Z</time>
      </trkpt>
      <trkpt lat="45.29427" lon="14.21613">
        <ele>887.43</ele>
        <time>2016-06-06T13:14:48Z</time>
      </trkpt>
      <trkpt lat="45.29434" lon="14.21621">
        <ele>887.43</ele>
        <time>2016-06-06T13:15:01Z</time>
      </trkpt>
      <trkpt lat="45.29445" lon="14.21612">
        <ele>889.36</ele>
        <time>2016-06-06T13:15:15Z</time>
      </trkpt>
      <trkpt lat="45.29447" lon="14.21613">
        <ele>888.88</ele>
        <time>2016-06-06T13:15:21Z</time>
      </trkpt>
      <trkpt lat="45.29455" lon="14.21626">
        <ele>886.95</ele>
        <time>2016-06-06T13:15:34Z</time>
      </trkpt>
      <trkpt lat="45.29461" lon="14.21625">
        <ele>886.47</ele>
        <time>2016-06-06T13:15:40Z</time>
      </trkpt>
      <trkpt lat="45.29477" lon="14.21626">
        <ele>885.99</ele>
        <time>2016-06-06T13:15:52Z</time>
      </trkpt>
      <trkpt lat="45.2948" lon="14.21628">
        <ele>885.51</ele>
        <time>2016-06-06T13:15:56Z</time>
      </trkpt>
      <trkpt lat="45.29483" lon="14.2163">
        <ele>885.51</ele>
        <time>2016-06-06T13:15:59Z</time>
      </trkpt>
      <trkpt lat="45.29494" lon="14.21625">
        <ele>885.03</ele>
        <time>2016-06-06T13:16:10Z</time>
      </trkpt>
      <trkpt lat="45.29507" lon="14.21615">
        <ele>884.55</ele>
        <time>2016-06-06T13:16:22Z</time>
      </trkpt>
      <trkpt lat="45.29514" lon="14.21614">
        <ele>883.59</ele>
        <time>2016-06-06T13:16:28Z</time>
      </trkpt>
      <trkpt lat="45.29528" lon="14.21615">
        <ele>882.63</ele>
        <time>2016-06-06T13:16:40Z</time>
      </trkpt>
      <trkpt lat="45.29531" lon="14.21615">
        <ele>882.63</ele>
        <time>2016-06-06T13:16:43Z</time>
      </trkpt>
      <trkpt lat="45.29545" lon="14.21618">
        <ele>881.67</ele>
        <time>2016-06-06T13:16:55Z</time>
      </trkpt>
      <trkpt lat="45.29553" lon="14.21619">
        <ele>880.71</ele>
        <time>2016-06-06T13:17:03Z</time>
      </trkpt>
      <trkpt lat="45.29562" lon="14.2162">
        <ele>880.22</ele>
        <time>2016-06-06T13:17:14Z</time>
      </trkpt>
      <trkpt lat="45.29566" lon="14.21622">
        <ele>879.74</ele>
        <time>2016-06-06T13:17:17Z</time>
      </trkpt>
      <trkpt lat="45.29571" lon="14.21621">
        <ele>878.78</ele>
        <time>2016-06-06T13:17:21Z</time>
      </trkpt>
      <trkpt lat="45.29585" lon="14.21619">
        <ele>877.34</ele>
        <time>2016-06-06T13:17:34Z</time>
      </trkpt>
      <trkpt lat="45.29586" lon="14.21619">
        <ele>877.34</ele>
        <time>2016-06-06T13:17:35Z</time>
      </trkpt>
      <trkpt lat="45.296" lon="14.21618">
        <ele>876.38</ele>
        <time>2016-06-06T13:17:47Z</time>
      </trkpt>
      <trkpt lat="45.29606" lon="14.21625">
        <ele>875.9</ele>
        <time>2016-06-06T13:17:54Z</time>
      </trkpt>
      <trkpt lat="45.2961" lon="14.21627">
        <ele>875.42</ele>
        <time>2016-06-06T13:17:58Z</time>
      </trkpt>
      <trkpt lat="45.29617" lon="14.21633">
        <ele>875.42</ele>
        <time>2016-06-06T13:18:05Z</time>
      </trkpt>
      <trkpt lat="45.29618" lon="14.21635">
        <ele>874.94</ele>
        <time>2016-06-06T13:18:07Z</time>
      </trkpt>
      <trkpt lat="45.29626" lon="14.21641">
        <ele>874.46</ele>
        <time>2016-06-06T13:18:16Z</time>
      </trkpt>
      <trkpt lat="45.29634" lon="14.21646">
        <ele>873.5</ele>
        <time>2016-06-06T13:18:26Z</time>
      </trkpt>
      <trkpt lat="45.29644" lon="14.21647">
        <ele>873.01</ele>
        <time>2016-06-06T13:18:36Z</time>
      </trkpt>
      <trkpt lat="45.29653" lon="14.21653">
        <ele>872.53</ele>
        <time>2016-06-06T13:18:47Z</time>
      </trkpt>
      <trkpt lat="45.29668" lon="14.21662">
        <ele>872.05</ele>
        <time>2016-06-06T13:19:00Z</time>
      </trkpt>
      <trkpt lat="45.29679" lon="14.21668">
        <ele>872.53</ele>
        <time>2016-06-06T13:19:11Z</time>
      </trkpt>
      <trkpt lat="45.2968" lon="14.2167">
        <ele>872.53</ele>
        <time>2016-06-06T13:19:14Z</time>
      </trkpt>
      <trkpt lat="45.29682" lon="14.21673">
        <ele>872.53</ele>
        <time>2016-06-06T13:19:16Z</time>
      </trkpt>
      <trkpt lat="45.29685" lon="14.21678">
        <ele>872.53</ele>
        <time>2016-06-06T13:19:21Z</time>
      </trkpt>
      <trkpt lat="45.29685" lon="14.21685">
        <ele>872.05</ele>
        <time>2016-06-06T13:19:26Z</time>
      </trkpt>
      <trkpt lat="45.29692" lon="14.21704">
        <ele>873.01</ele>
        <time>2016-06-06T13:19:39Z</time>
      </trkpt>
      <trkpt lat="45.29696" lon="14.21709">
        <ele>873.5</ele>
        <time>2016-06-06T13:19:44Z</time>
      </trkpt>
      <trkpt lat="45.29701" lon="14.21714">
        <ele>873.98</ele>
        <time>2016-06-06T13:19:49Z</time>
      </trkpt>
      <trkpt lat="45.29704" lon="14.21717">
        <ele>873.5</ele>
        <time>2016-06-06T13:19:52Z</time>
      </trkpt>
      <trkpt lat="45.29708" lon="14.21721">
        <ele>873.98</ele>
        <time>2016-06-06T13:19:57Z</time>
      </trkpt>
      <trkpt lat="45.29714" lon="14.21728">
        <ele>874.94</ele>
        <time>2016-06-06T13:20:05Z</time>
      </trkpt>
      <trkpt lat="45.29721" lon="14.21741">
        <ele>874.46</ele>
        <time>2016-06-06T13:20:14Z</time>
      </trkpt>
      <trkpt lat="45.29721" lon="14.21746">
        <ele>875.42</ele>
        <time>2016-06-06T13:20:17Z</time>
      </trkpt>
      <trkpt lat="45.29723" lon="14.21753">
        <ele>875.42</ele>
        <time>2016-06-06T13:20:22Z</time>
      </trkpt>
      <trkpt lat="45.29727" lon="14.21761">
        <ele>875.9</ele>
        <time>2016-06-06T13:20:29Z</time>
      </trkpt>
      <trkpt lat="45.29736" lon="14.2177">
        <ele>875.9</ele>
        <time>2016-06-06T13:20:40Z</time>
      </trkpt>
      <trkpt lat="45.29739" lon="14.2177">
        <ele>876.38</ele>
        <time>2016-06-06T13:20:43Z</time>
      </trkpt>
      <trkpt lat="45.29742" lon="14.21773">
        <ele>876.38</ele>
        <time>2016-06-06T13:20:46Z</time>
      </trkpt>
      <trkpt lat="45.29744" lon="14.21774">
        <ele>876.38</ele>
        <time>2016-06-06T13:20:48Z</time>
      </trkpt>
      <trkpt lat="45.29747" lon="14.21775">
        <ele>876.38</ele>
        <time>2016-06-06T13:20:50Z</time>
      </trkpt>
      <trkpt lat="45.29759" lon="14.21782">
        <ele>876.38</ele>
        <time>2016-06-06T13:21:04Z</time>
      </trkpt>
      <trkpt lat="45.2977" lon="14.21786">
        <ele>875.9</ele>
        <time>2016-06-06T13:21:15Z</time>
      </trkpt>
      <trkpt lat="45.29777" lon="14.21791">
        <ele>875.9</ele>
        <time>2016-06-06T13:21:30Z</time>
      </trkpt>
      <trkpt lat="45.29786" lon="14.21792">
        <ele>876.38</ele>
        <time>2016-06-06T13:21:37Z</time>
      </trkpt>
      <trkpt lat="45.29788" lon="14.21791">
        <ele>875.9</ele>
        <time>2016-06-06T13:21:39Z</time>
      </trkpt>
      <trkpt lat="45.29806" lon="14.21778">
        <ele>875.42</ele>
        <time>2016-06-06T13:21:55Z</time>
      </trkpt>
      <trkpt lat="45.29818" lon="14.21777">
        <ele>875.42</ele>
        <time>2016-06-06T13:22:06Z</time>
      </trkpt>
      <trkpt lat="45.2982" lon="14.21777">
        <ele>876.38</ele>
        <time>2016-06-06T13:22:09Z</time>
      </trkpt>
      <trkpt lat="45.29824" lon="14.21777">
        <ele>875.9</ele>
        <time>2016-06-06T13:22:12Z</time>
      </trkpt>
      <trkpt lat="45.29826" lon="14.21776">
        <ele>876.38</ele>
        <time>2016-06-06T13:22:14Z</time>
      </trkpt>
      <trkpt lat="45.29842" lon="14.21771">
        <ele>875.42</ele>
        <time>2016-06-06T13:22:26Z</time>
      </trkpt>
      <trkpt lat="45.29849" lon="14.2177">
        <ele>875.42</ele>
        <time>2016-06-06T13:22:30Z</time>
      </trkpt>
      <trkpt lat="45.29861" lon="14.21763">
        <ele>875.9</ele>
        <time>2016-06-06T13:22:42Z</time>
      </trkpt>
      <trkpt lat="45.29869" lon="14.2175">
        <ele>875.9</ele>
        <time>2016-06-06T13:22:52Z</time>
      </trkpt>
      <trkpt lat="45.29877" lon="14.21734">
        <ele>875.42</ele>
        <time>2016-06-06T13:23:04Z</time>
      </trkpt>
      <trkpt lat="45.29878" lon="14.21732">
        <ele>874.46</ele>
        <time>2016-06-06T13:23:06Z</time>
      </trkpt>
      <trkpt lat="45.2989" lon="14.21722">
        <ele>875.9</ele>
        <time>2016-06-06T13:23:19Z</time>
      </trkpt>
      <trkpt lat="45.29899" lon="14.21717">
        <ele>876.86</ele>
        <time>2016-06-06T13:23:30Z</time>
      </trkpt>
      <trkpt lat="45.29915" lon="14.21717">
        <ele>877.34</ele>
        <time>2016-06-06T13:23:42Z</time>
      </trkpt>
      <trkpt lat="45.29926" lon="14.21721">
        <ele>877.82</ele>
        <time>2016-06-06T13:23:54Z</time>
      </trkpt>
      <trkpt lat="45.29942" lon="14.2172">
        <ele>878.78</ele>
        <time>2016-06-06T13:24:07Z</time>
      </trkpt>
      <trkpt lat="45.29954" lon="14.21722">
        <ele>879.26</ele>
        <time>2016-06-06T13:24:18Z</time>
      </trkpt>
      <trkpt lat="45.29967" lon="14.21723">
        <ele>879.74</ele>
        <time>2016-06-06T13:24:30Z</time>
      </trkpt>
      <trkpt lat="45.29984" lon="14.21721">
        <ele>880.22</ele>
        <time>2016-06-06T13:24:46Z</time>
      </trkpt>
      <trkpt lat="45.29999" lon="14.21725">
        <ele>881.19</ele>
        <time>2016-06-06T13:25:00Z</time>
      </trkpt>
      <trkpt lat="45.30013" lon="14.21733">
        <ele>881.19</ele>
        <time>2016-06-06T13:25:11Z</time>
      </trkpt>
      <trkpt lat="45.30024" lon="14.2174">
        <ele>881.67</ele>
        <time>2016-06-06T13:25:25Z</time>
      </trkpt>
      <trkpt lat="45.30042" lon="14.21745">
        <ele>882.15</ele>
        <time>2016-06-06T13:25:39Z</time>
      </trkpt>
      <trkpt lat="45.30052" lon="14.21751">
        <ele>883.11</ele>
        <time>2016-06-06T13:25:54Z</time>
      </trkpt>
      <trkpt lat="45.30061" lon="14.2175">
        <ele>883.11</ele>
        <time>2016-06-06T13:26:08Z</time>
      </trkpt>
      <trkpt lat="45.30076" lon="14.2174">
        <ele>883.59</ele>
        <time>2016-06-06T13:26:23Z</time>
      </trkpt>
      <trkpt lat="45.30084" lon="14.21741">
        <ele>883.59</ele>
        <time>2016-06-06T13:26:29Z</time>
      </trkpt>
      <trkpt lat="45.30097" lon="14.21738">
        <ele>884.55</ele>
        <time>2016-06-06T13:26:42Z</time>
      </trkpt>
      <trkpt lat="45.30103" lon="14.2174">
        <ele>885.03</ele>
        <time>2016-06-06T13:26:46Z</time>
      </trkpt>
      <trkpt lat="45.30109" lon="14.2174">
        <ele>885.51</ele>
        <time>2016-06-06T13:26:52Z</time>
      </trkpt>
      <trkpt lat="45.30121" lon="14.2174">
        <ele>885.51</ele>
        <time>2016-06-06T13:26:59Z</time>
      </trkpt>
      <trkpt lat="45.30136" lon="14.21736">
        <ele>885.51</ele>
        <time>2016-06-06T13:27:12Z</time>
      </trkpt>
      <trkpt lat="45.3015" lon="14.21738">
        <ele>885.51</ele>
        <time>2016-06-06T13:27:23Z</time>
      </trkpt>
      <trkpt lat="45.30158" lon="14.21743">
        <ele>885.51</ele>
        <time>2016-06-06T13:27:29Z</time>
      </trkpt>
      <trkpt lat="45.30162" lon="14.21741">
        <ele>885.99</ele>
        <time>2016-06-06T13:27:34Z</time>
      </trkpt>
      <trkpt lat="45.30179" lon="14.2175">
        <ele>886.47</ele>
        <time>2016-06-06T13:27:49Z</time>
      </trkpt>
      <trkpt lat="45.30196" lon="14.21757">
        <ele>886.47</ele>
        <time>2016-06-06T13:28:02Z</time>
      </trkpt>
      <trkpt lat="45.30197" lon="14.21757">
        <ele>886.47</ele>
        <time>2016-06-06T13:28:03Z</time>
      </trkpt>
      <trkpt lat="45.30209" lon="14.21752">
        <ele>887.91</ele>
        <time>2016-06-06T13:28:15Z</time>
      </trkpt>
      <trkpt lat="45.30229" lon="14.21751">
        <ele>888.4</ele>
        <time>2016-06-06T13:28:30Z</time>
      </trkpt>
      <trkpt lat="45.30241" lon="14.21755">
        <ele>889.36</ele>
        <time>2016-06-06T13:28:40Z</time>
      </trkpt>
      <trkpt lat="45.3026" lon="14.21759">
        <ele>888.4</ele>
        <time>2016-06-06T13:28:54Z</time>
      </trkpt>
      <trkpt lat="45.30277" lon="14.21753">
        <ele>888.88</ele>
        <time>2016-06-06T13:29:07Z</time>
      </trkpt>
      <trkpt lat="45.30291" lon="14.2175">
        <ele>888.4</ele>
        <time>2016-06-06T13:29:17Z</time>
      </trkpt>
      <trkpt lat="45.30295" lon="14.2175">
        <ele>888.88</ele>
        <time>2016-06-06T13:29:20Z</time>
      </trkpt>
      <trkpt lat="45.30313" lon="14.2175">
        <ele>889.36</ele>
        <time>2016-06-06T13:29:34Z</time>
      </trkpt>
      <trkpt lat="45.30322" lon="14.21742">
        <ele>889.84</ele>
        <time>2016-06-06T13:29:42Z</time>
      </trkpt>
      <trkpt lat="45.30325" lon="14.21738">
        <ele>889.84</ele>
        <time>2016-06-06T13:29:45Z</time>
      </trkpt>
      <trkpt lat="45.30338" lon="14.21725">
        <ele>890.32</ele>
        <time>2016-06-06T13:29:58Z</time>
      </trkpt>
      <trkpt lat="45.30346" lon="14.21713">
        <ele>890.8</ele>
        <time>2016-06-06T13:30:12Z</time>
      </trkpt>
      <trkpt lat="45.30349" lon="14.21709">
        <ele>891.28</ele>
        <time>2016-06-06T13:30:14Z</time>
      </trkpt>
      <trkpt lat="45.30356" lon="14.21706">
        <ele>890.8</ele>
        <time>2016-06-06T13:30:18Z</time>
      </trkpt>
      <trkpt lat="45.30366" lon="14.217">
        <ele>891.76</ele>
        <time>2016-06-06T13:30:27Z</time>
      </trkpt>
      <trkpt lat="45.30371" lon="14.217">
        <ele>891.28</ele>
        <time>2016-06-06T13:30:31Z</time>
      </trkpt>
      <trkpt lat="45.30384" lon="14.21699">
        <ele>892.72</ele>
        <time>2016-06-06T13:30:43Z</time>
      </trkpt>
      <trkpt lat="45.304" lon="14.21699">
        <ele>893.2</ele>
        <time>2016-06-06T13:30:54Z</time>
      </trkpt>
      <trkpt lat="45.30414" lon="14.217">
        <ele>894.64</ele>
        <time>2016-06-06T13:31:06Z</time>
      </trkpt>
      <trkpt lat="45.30424" lon="14.21697">
        <ele>895.61</ele>
        <time>2016-06-06T13:31:13Z</time>
      </trkpt>
      <trkpt lat="45.30431" lon="14.21694">
        <ele>895.61</ele>
        <time>2016-06-06T13:31:20Z</time>
      </trkpt>
      <trkpt lat="45.30444" lon="14.21698">
        <ele>897.05</ele>
        <time>2016-06-06T13:31:32Z</time>
      </trkpt>
      <trkpt lat="45.30458" lon="14.21704">
        <ele>898.01</ele>
        <time>2016-06-06T13:31:43Z</time>
      </trkpt>
      <trkpt lat="45.3047" lon="14.21701">
        <ele>898.97</ele>
        <time>2016-06-06T13:31:55Z</time>
      </trkpt>
      <trkpt lat="45.30474" lon="14.21696">
        <ele>899.45</ele>
        <time>2016-06-06T13:31:59Z</time>
      </trkpt>
      <trkpt lat="45.30485" lon="14.21694">
        <ele>900.41</ele>
        <time>2016-06-06T13:32:09Z</time>
      </trkpt>
      <trkpt lat="45.30498" lon="14.21684">
        <ele>900.89</ele>
        <time>2016-06-06T13:32:21Z</time>
      </trkpt>
      <trkpt lat="45.30516" lon="14.21676">
        <ele>900.89</ele>
        <time>2016-06-06T13:32:33Z</time>
      </trkpt>
      <trkpt lat="45.30525" lon="14.21667">
        <ele>901.37</ele>
        <time>2016-06-06T13:32:42Z</time>
      </trkpt>
      <trkpt lat="45.30529" lon="14.21663">
        <ele>902.33</ele>
        <time>2016-06-06T13:32:45Z</time>
      </trkpt>
      <trkpt lat="45.30539" lon="14.21658">
        <ele>902.33</ele>
        <time>2016-06-06T13:32:56Z</time>
      </trkpt>
      <trkpt lat="45.30554" lon="14.21646">
        <ele>903.78</ele>
        <time>2016-06-06T13:33:09Z</time>
      </trkpt>
      <trkpt lat="45.30564" lon="14.21638">
        <ele>905.22</ele>
        <time>2016-06-06T13:33:18Z</time>
      </trkpt>
      <trkpt lat="45.30569" lon="14.21637">
        <ele>904.74</ele>
        <time>2016-06-06T13:33:22Z</time>
      </trkpt>
      <trkpt lat="45.3058" lon="14.21629">
        <ele>906.18</ele>
        <time>2016-06-06T13:33:35Z</time>
      </trkpt>
      <trkpt lat="45.30588" lon="14.21628">
        <ele>907.62</ele>
        <time>2016-06-06T13:33:45Z</time>
      </trkpt>
      <trkpt lat="45.30601" lon="14.21622">
        <ele>909.06</ele>
        <time>2016-06-06T13:33:58Z</time>
      </trkpt>
      <trkpt lat="45.30606" lon="14.21621">
        <ele>909.06</ele>
        <time>2016-06-06T13:34:02Z</time>
      </trkpt>
      <trkpt lat="45.30618" lon="14.21614">
        <ele>910.51</ele>
        <time>2016-06-06T13:34:16Z</time>
      </trkpt>
      <trkpt lat="45.30627" lon="14.21613">
        <ele>912.43</ele>
        <time>2016-06-06T13:34:23Z</time>
      </trkpt>
      <trkpt lat="45.30636" lon="14.21611">
        <ele>911.95</ele>
        <time>2016-06-06T13:34:34Z</time>
      </trkpt>
      <trkpt lat="45.30647" lon="14.21607">
        <ele>913.39</ele>
        <time>2016-06-06T13:34:44Z</time>
      </trkpt>
      <trkpt lat="45.30659" lon="14.21604">
        <ele>914.35</ele>
        <time>2016-06-06T13:34:54Z</time>
      </trkpt>
      <trkpt lat="45.30668" lon="14.21601">
        <ele>915.31</ele>
        <time>2016-06-06T13:35:05Z</time>
      </trkpt>
      <trkpt lat="45.30679" lon="14.21599">
        <ele>916.27</ele>
        <time>2016-06-06T13:35:16Z</time>
      </trkpt>
      <trkpt lat="45.30682" lon="14.21599">
        <ele>916.75</ele>
        <time>2016-06-06T13:35:19Z</time>
      </trkpt>
      <trkpt lat="45.30694" lon="14.216">
        <ele>917.72</ele>
        <time>2016-06-06T13:35:31Z</time>
      </trkpt>
      <trkpt lat="45.30703" lon="14.21602">
        <ele>918.68</ele>
        <time>2016-06-06T13:35:43Z</time>
      </trkpt>
      <trkpt lat="45.30706" lon="14.21604">
        <ele>918.68</ele>
        <time>2016-06-06T13:35:45Z</time>
      </trkpt>
      <trkpt lat="45.30718" lon="14.216">
        <ele>919.64</ele>
        <time>2016-06-06T13:35:56Z</time>
      </trkpt>
      <trkpt lat="45.30733" lon="14.21597">
        <ele>921.08</ele>
        <time>2016-06-06T13:36:08Z</time>
      </trkpt>
      <trkpt lat="45.30745" lon="14.21596">
        <ele>921.56</ele>
        <time>2016-06-06T13:36:18Z</time>
      </trkpt>
      <trkpt lat="45.30761" lon="14.21594">
        <ele>922.04</ele>
        <time>2016-06-06T13:36:31Z</time>
      </trkpt>
      <trkpt lat="45.30774" lon="14.21589">
        <ele>923</ele>
        <time>2016-06-06T13:36:41Z</time>
      </trkpt>
      <trkpt lat="45.30785" lon="14.21589">
        <ele>923.48</ele>
        <time>2016-06-06T13:36:53Z</time>
      </trkpt>
      <trkpt lat="45.3079" lon="14.21585">
        <ele>925.41</ele>
        <time>2016-06-06T13:37:05Z</time>
      </trkpt>
      <trkpt lat="45.30791" lon="14.21578">
        <ele>927.81</ele>
        <time>2016-06-06T13:37:22Z</time>
      </trkpt>
      <trkpt lat="45.30792" lon="14.21569">
        <ele>929.25</ele>
        <time>2016-06-06T13:37:29Z</time>
      </trkpt>
      <trkpt lat="45.30794" lon="14.21561">
        <ele>928.77</ele>
        <time>2016-06-06T13:37:34Z</time>
      </trkpt>
      <trkpt lat="45.30796" lon="14.21552">
        <ele>928.77</ele>
        <time>2016-06-06T13:37:40Z</time>
      </trkpt>
      <trkpt lat="45.30798" lon="14.21535">
        <ele>928.77</ele>
        <time>2016-06-06T13:37:54Z</time>
      </trkpt>
      <trkpt lat="45.30799" lon="14.21534">
        <ele>927.81</ele>
        <time>2016-06-06T13:38:25Z</time>
      </trkpt>
      <trkpt lat="45.30797" lon="14.21534">
        <ele>927.33</ele>
        <time>2016-06-06T13:38:58Z</time>
      </trkpt>
      <trkpt lat="45.30795" lon="14.21531">
        <ele>926.85</ele>
        <time>2016-06-06T13:39:32Z</time>
      </trkpt>
    </trkseg>
  </trk>
</gpx>